Please, select a metadata (click on title):
ALLIER
Rivière
Allier
P33
Puits de pompage
P33
D13
Piézomètre
D13
OURS
Forage
Ours
MARPON
Source
Marpon
COURNON
Pluviomètre
Cournon
OPME
Pluviomètre
Opme
Selected metadata :
Metadata 'P33' (2)

Description : Puits de pompage
Starting date : 2011-02-14 11:05:00
Ending date : Still ongoing
Locality : P33
Longitude : 3.218 Latitude : 45.74 (EPSG : 4326)
Elevation : 319
© auverwatch system 

Tables :
-
+

Physico-chemical characterization of water

Station ID Longitude Latitude Altitude Sampling Time Water Column Height NGF level Water Temperature pH from field Conductivity from field pH at 20°C Conductivity at 20°C Turbidity MES O2Dissolved CO2 H4SiO4 CO3 HCO3 Cl NO3 NO2 PO4 SO4 Ca Mg Na K NH4 P Total Iron AA F Anions Total Cations Total %BI Total Coliforms Escherichia Coli Enterococci Salmonella Pseudomonas Aeruginosa
degrees degrees m UTC m m NGF °C 1 μS/cm 1 μS/cm NTU mg/L mg/L mg/L mg/L mg/L mg/L mg/L mg/L mg/L mg/L mg/L mg/L mg/L mg/L mg/L mg/L mg/L mg/L mg/L meq/L meq/L % UFC/100mL UFC/100mL UFC/100mL UFC/100mL UFC/100mL
P33 3.218 45.74 319 2010-12-10 00:00:00 3.34 316.78 12.6 7.43 188 7.1 180 0.2 5.1 19.2 0 5.9 5.7 12.5 270 8.5 14.9 0 72 13.5 5 ⩽LOQ 0.15 8.6 17.9 4.9 11.8 3.1 ⩽LOQ 0 1.82 1.89 1.88679245283019
P33 3.218 45.74 319 2011-02-14 00:00:00 4.39 315.73 8.9 7.07 180 7.5 158 0.3 5.9 16 0 5.5 5.7 9.6 275 9.1 14.8 0 67 12.3 6.4 ⩽LOQ 0.08 7.6 14.2 4.8 12.4 2.9 ⩽LOQ 0 1.71 1.72 0.291545189504373
P33 3.218 45.74 319 2011-02-28 00:00:00 4.29 315.83 7.9 6.85 182 7.15 146 0.3 6.8 16.7 0 5.5 6.1 9.1 256 8.8 12.7 0 67 13.6 6.8 ⩽LOQ 0.11 8.2 15.4 5.2 10.5 2.6 ⩽LOQ 0 1.76 1.72 1.14942528735632
P33 3.218 45.74 319 2011-03-14 00:00:00 4.17 315.95 8.5 6.96 189 7.2 193 0.3 6.8 25.2 0 5.5 6.8 9.6 283 8.8 14.5 0 67 14.5 6.8 ⩽LOQ 0.11 8.7 14.8 5.3 10.3 2.4 ⩽LOQ 0 1.8 1.69 3.15186246418338
P33 3.218 45.74 319 2011-03-28 00:00:00 3.99 316.13 7.8 7.07 181 6.95 178 0.2 7.3 17.4 0 5.5 6.5 8.9 266 8.7 14 0 67 13.4 6.6 ⩽LOQ 0.13 8.2 15 4.3 10.2 2.6 ⩽LOQ 0 1.75 1.61 4.16666666666667
P33 3.218 45.74 319 2011-04-11 00:00:00 4.23 315.89 8.8 7.11 178 7.15 171 0.4 7.1 10 0 5.4 6.8 9.3 280 9 13.9 0 66 12.5 5.8 ⩽LOQ 0.12 7.5 13.8 5.5 10.1 2.8 ⩽LOQ 0 1.68 1.65 0.900900900900908
P33 3.218 45.74 319 2011-04-26 00:00:00 4.48 315.64 9.3 7.17 179 7.2 177 0.3 5.1 12.3 0 5.6 5.8 9.1 277 8.7 15 0 68 13 5.5 ⩽LOQ 0.08 7.7 14.4 5.1 10.1 2.6 ⩽LOQ 0 1.73 1.65 2.36686390532545
P33 3.218 45.74 319 2011-05-09 00:00:00 4.54 315.58 11.2 7.03 191 7.35 204 ⩽LOQ 3.5 18.3 0 5.9 6.3 9.2 273 8.55 15.4 0 72 14.4 6.6 ⩽LOQ 0.13 8.7 15.6 5.4 10.1 2.6 ⩽LOQ 102 1.87 1.73 3.88888888888889
P33 3.218 45.74 319 2011-05-23 00:00:00 4.88 315.24 14.1 7.22 219 7.2 217 ⩽LOQ 2.5 27.8 0 6.7 7.6 11.1 328 8.65 15.4 0 82 17.9 5.4 ⩽LOQ 0.13 9.9 18.3 5.8 11.1 3.1 ⩽LOQ 0 2.14 1.95 4.64547677261614
P33 3.218 45.74 319 2011-06-06 00:00:00 4.67 315.45 15.2 6.82 242 7 245 0.3 1.7 26.2 0 7.2 8.1 11.5 344 8.3 15.3 0 88 20.9 5.8 ⩽LOQ 0.14 10.9 18.2 6.3 14.9 3.7 ⩽LOQ 0 2.35 2.17 3.98230088495576
P33 3.218 45.74 319 2011-06-20 00:00:00 4.4 315.72 17.8 6.9 238 7.2 241 ⩽LOQ 1.6 22.5 0 7.2 8.3 11.2 332 8.25 14.6 0 88 19.9 5.7 ⩽LOQ 0.2 10.6 18.7 6.3 14.5 3.8 ⩽LOQ 0 2.32 2.18 3.1111111111111
P33 3.218 45.74 319 2011-07-04 00:00:00 4.81 315.31 17.2 6.87 239 7 237 ⩽LOQ 1.9 24.5 0 7.4 8 11.8 349 8.6 11.3 0 90 21.2 4.6 ⩽LOQ 0.18 11 18.7 6.2 15.6 3.8 ⩽LOQ 115 2.38 2.22 3.47826086956521
P33 3.218 45.74 319 2011-07-18 00:00:00 4.62 315.5 16.9 6.89 234 7.1 232 0.3 1.8 15.7 0 7.1 7.6 12.2 355 8.7 15.8 0 87 20.5 3.6 ⩽LOQ 0.18 9.9 18.4 6 17.5 3.8 ⩽LOQ 117 2.27 2.27 0
P33 3.218 45.74 319 2011-08-01 00:00:00 4.5 315.62 0 76 19.2 3.7 ⩽LOQ 0.16 9.2 17.4 6 17 3.5 2.04 2.19 3.54609929078014
P33 3.218 45.74 319 2011-08-16 00:00:00 4.56 315.56 19.2 6.86 223 7.1 220 ⩽LOQ 1.5 22.9 0 7.1 6.8 12 8.7 16.3 0 87 18.1 2.8 ⩽LOQ 0.18 9.2 18.4 5.8 15 3.8 ⩽LOQ 105 2.17 2.15 0.462962962962963
P33 3.218 45.74 319 2011-08-29 00:00:00 4.35 315.77 18.2 6.96 222 7.25 219 0.2 2.2 16.4 0 7.2 7 12.1 8.75 17.4 0 88 18.2 2.1 ⩽LOQ 0.13 8.7 17.2 5.5 14.4 3.9 ⩽LOQ 113 2.17 2.04 3.08788598574822
P33 3.218 45.74 319 2011-09-12 00:00:00 4.45 315.67 18.5 6.9 218 7.5 217 ⩽LOQ 1.8 18.3 0 7.1 6.8 11 310 8.25 13.1 0 87 17.7 1.6 ⩽LOQ 0.13 8.1 15.2 5.3 15.1 4 ⩽LOQ 140 2.12 1.96 3.92156862745098
P33 3.218 45.74 319 2011-09-26 00:00:00 4.61 315.51 19.4 6.91 219 7.25 231 ⩽LOQ 2.8 22 0 7 7.4 10.8 313 8.4 17.7 0 85 19.1 2.6 ⩽LOQ 0.15 8.7 16.5 5.6 16.3 4.3 ⩽LOQ 131 2.15 2.11 0.938967136150236
P33 3.218 45.74 319 2011-10-10 00:00:00 4.55 315.57 19.3 6.87 215 7.1 212 ⩽LOQ 1.5 21.5 0 6.6 6.5 10.3 313 8.45 17.6 0 81 19.1 2.8 ⩽LOQ 0.15 8.3 16.1 5.4 15 4.1 ⩽LOQ 103 2.08 2.01 1.71149144254279
P33 3.218 45.74 319 2011-10-24 00:00:00 4.68 315.44 17.4 6.88 215 7.05 214 ⩽LOQ 1.7 18.5 0 6.6 6.5 10.2 313 8.7 17.1 0 81 19.8 3.2 ⩽LOQ 0.13 8.7 16.1 5.3 15.1 4.3 ⩽LOQ 103 2.12 2.01 2.6634382566586
P33 3.218 45.74 319 2011-11-07 00:00:00 2.37 317.75 16.2 7.01 212 7.05 209 ⩽LOQ 4.5 18.1 0 6.4 6.8 9.8 302 8.5 15.1 0 78 19.2 4.4 ⩽LOQ 0.13 9 15.2 5.7 15 4.8 ⩽LOQ 114 2.08 2.01 1.71149144254279
P33 3.218 45.74 319 2011-11-21 00:00:00 4.71 315.41 16.4 6.91 189 7.15 185 ⩽LOQ 3.8 15.1 0 6 5.6 9.7 290 8.75 14.4 0 73 14 4.4 ⩽LOQ 0.12 7.9 13.9 4.8 12.2 3.2 ⩽LOQ 111 1.83 1.7 3.68271954674221
P33 3.218 45.74 319 2011-12-05 00:00:00 4.8 315.32 13.6 7.32 185 7.15 181 0.2 4.5 30.1 0 5.7 6 9 274 8.6 14.5 0 70 14 4.4 ⩽LOQ 0.1 8.1 13.1 4.9 11.9 3.2 ⩽LOQ 110 1.78 1.66 3.48837209302325
P33 3.218 45.74 319 2011-12-19 00:00:00 4.09 316.03 11.2 7.19 180 7.3 178 0.2 6.2 16 0 5.7 5.5 9 269 8.55 13.6 0 70 13.9 4.4 ⩽LOQ 0.12 8 14.4 4.7 13.9 4 ⩽LOQ 105 1.78 1.81 0.835654596100279
P33 3.218 45.74 319 2012-01-03 00:00:00 3.59 316.53 10.6 7.3 164 7.4 163 0.5 6.6 9.7 0 5.2 4.8 9.4 280 8.95 13.6 0 63 11.7 5.1 ⩽LOQ 0.09 6.8 13.2 4.6 11.5 2.9 ⩽LOQ 110 1.59 1.61 0.625000000000001
P33 3.218 45.74 319 2012-01-16 00:00:00 4.36 315.76 8 7.34 155 7.4 153 ⩽LOQ 6.4 7.4 0 5 5 8 248 8.6 13.5 0 61 10.6 4.9 ⩽LOQ 0.11 6.5 12.8 4.4 11.1 2.6 ⩽LOQ 102 1.51 1.55 1.30718954248366
P33 3.218 45.74 319 2012-01-30 00:00:00 4.7 315.42 8 7.55 157 7.35 155 ⩽LOQ 6.9 12.5 0 5 4.9 8.1 243 8.8 13.2 0 61 10.8 5.1 ⩽LOQ 0.11 6.4 11.5 4.1 10.2 2.6 ⩽LOQ 131 1.52 1.42 3.40136054421769
P33 3.218 45.74 319 2012-02-13 00:00:00 4.89 315.23 6.2 7.19 168 7.45 166 ⩽LOQ 7.2 5.8 0 5.2 5.3 8.7 257 8.7 12.8 0 63 13.2 5.6 ⩽LOQ 0.08 7.2 13.8 5 11.8 3.3 ⩽LOQ 0 1.65 1.7 1.49253731343284
P33 3.218 45.74 319 2012-02-27 00:00:00 4.8 315.32 6.9 7.33 190 7.35 181 ⩽LOQ 9.1 8.3 0 5.4 6.3 8.6 281 8.65 12.6 0 66 15.5 6.5 ⩽LOQ 0.08 8.1 14.9 5.2 11.7 2.8 ⩽LOQ 0 1.79 1.75 1.12994350282486
P33 3.218 45.74 319 2012-03-12 00:00:00 4.34 315.78 7.3 7.18 201 7.6 182 0.3 9 9 0 5.4 6.2 8.6 269 8.7 11.8 0 66 14.6 6.5 ⩽LOQ 0.07 8.1 14.1 4.8 11.7 2.6 ⩽LOQ 0 1.77 1.68 2.60869565217391
P33 3.218 45.74 319 2012-03-26 00:00:00 4.66 315.46 7.8 7.22 183 7.25 179 ⩽LOQ 8 11.1 0 5.4 6.6 8 255 8.4 12.3 0 66 14.2 6 ⩽LOQ 0.12 7.9 14.1 5.1 10.7 2.4 ⩽LOQ 0 1.74 1.65 2.65486725663717
P33 3.218 45.74 319 2012-04-10 00:00:00 4.63 315.49 6.8 7.14 194 7.8 185 ⩽LOQ 6.7 15.1 0 5.5 6.4 10.4 299 9 12.3 0 67 15.7 6 ⩽LOQ 0.05 8.5 14.7 5.5 11 2.4 ⩽LOQ 100 1.81 1.73 2.25988700564972
P33 3.218 45.74 319 2012-04-23 00:00:00 3.89 316.23 7.6 7.19 191 7.35 186 ⩽LOQ 5.6 12.5 0 6.1 6.1 10.4 302 8.9 13.6 0 74 15.4 4.8 ⩽LOQ 0.11 7.9 14.6 5.3 11.8 2.5 ⩽LOQ 105 1.89 1.74 4.13223140495868
P33 3.218 45.74 319 2012-05-09 00:00:00 3.77 316.35 10.1 7.1 155 7.15 150 ⩽LOQ 5.2 15.3 0 5.2 4.9 8.4 241 8.5 13.2 0 63 10.3 4.3 ⩽LOQ 0.12 6.7 12.6 4.4 10.9 2.1 ⩽LOQ 0 1.53 1.52 0.327868852459017
P33 3.218 45.74 319 2012-05-21 00:00:00 3.96 316.16 9.2 6.99 155 7.15 150 ⩽LOQ 3.5 15.5 0 5.3 5.2 8.6 246 8.5 16 0 65 10 4 ⩽LOQ 0.13 6.7 11.9 4.3 10.7 2 ⩽LOQ 122 1.55 1.47 2.64900662251656
P33 3.218 45.74 319 2012-06-04 00:00:00 3.76 316.36 10.8 6.92 169 7.05 165 0.4 4.2 10.9 0 6.2 6.8 9.9 281 8.6 14.4 0 76 9.2 5 ⩽LOQ 0.19 7.2 13.6 4.4 11.6 2.5 ⩽LOQ 112 1.74 1.61 3.88059701492538
P33 3.218 45.74 319 2012-06-18 00:00:00 4.16 315.96 12.9 7.09 179 7.05 167 ⩽LOQ 2.8 19.9 0 6.1 5.9 9.7 260 8.5 14.9 0 74 9.5 3.5 ⩽LOQ 0.07 6.9 15.2 4.9 11.6 2.6 ⩽LOQ 101 1.68 1.74 1.75438596491228
P33 3.218 45.74 319 2012-07-02 00:00:00 6.08 314.04 13.6 6.93 175 7.1 166 0.2 1.63 12 0 6.8 5.5 10.4 268 8.55 14.2 0 83 10 2.9 ⩽LOQ 0.15 6.8 13.9 5.1 12.1 3.1 ⩽LOQ 105 1.83 1.72 3.09859154929578
P33 3.218 45.74 319 2012-07-16 00:00:00 4.45 315.67 14.1 7.05 182 6.85 179 ⩽LOQ 1.6 13.4 0 6.8 6 9.6 272 8.15 15.6 0 83 12.5 3 ⩽LOQ 0.12 7.7 16.2 5 11.7 3.1 ⩽LOQ 0 1.92 1.81 2.94906166219839
P33 3.218 45.74 319 2012-07-30 00:00:00 4.55 315.57 16.4 6.81 196 7.1 190 ⩽LOQ 1.7 16.9 0 6.6 6.9 9.9 283 8.15 16.5 0 81 13.9 2.8 ⩽LOQ 0.14 7.8 16.3 5.5 12.3 2.9 ⩽LOQ 0 1.93 1.88 1.31233595800526
P33 3.218 45.74 319 2012-08-13 00:00:00 4.44 315.68 16.9 6.97 214 7.25 201 ⩽LOQ 2 7.4 0 6.5 6.6 11.1 298 8.3 17.5 0 79 16 2.7 ⩽LOQ 0.13 8.8 17.8 5.6 12.6 3.6 ⩽LOQ 0 1.97 1.99 0.505050505050505
P33 3.218 45.74 319 2012-08-27 00:00:00 4.42 315.7 18.5 6.83 201 7.2 197 0.4 1.1 28 0 6.6 6.4 11.1 300 8.4 17.4 0 81 16.4 2.6 ⩽LOQ 0.14 8.3 17.8 5.4 12.7 3.5 ⩽LOQ 106 2 1.98 0.502512562814071
P33 3.218 45.74 319 2012-09-10 00:00:00 4.72 315.4 19.6 7.04 208 6.95 187 0.2 1.2 29.9 0 6 6.1 10.3 286 8.25 18.3 0 73 15.6 2.2 ⩽LOQ ⩽LOQ 7.1 16.6 5.1 12.5 3.5 ⩽LOQ 109 1.82 1.88 1.62162162162162
P33 3.218 45.74 319 2012-09-24 00:00:00 4.83 315.29 19.1 6.84 199 7.1 192 ⩽LOQ 1.7 17.6 0 6.1 7.1 9.8 292 8.25 17.9 0 74 18.2 3.4 ⩽LOQ 0.15 7.8 15.3 4.9 12.5 3.5 ⩽LOQ 118 1.94 1.8 3.74331550802139
P33 3.218 45.74 319 2012-10-08 00:00:00 4.72 315.4 18.9 7.03 234 7.05 197 ⩽LOQ 1.8 15.1 0 6.3 6 10.2 298 8.2 16.4 0 77 18.4 3.3 ⩽LOQ 0.13 7.7 16.9 5.1 12.8 3.5 ⩽LOQ 113 1.85 1.91 1.59574468085107
P33 3.218 45.74 319 2012-10-22 00:00:00 6.23 313.89 17.6 7.35 210 7.1 203 ⩽LOQ 2.3 24.3 0 6.2 6.4 10.9 296 8.45 17.6 0 76 18.7 3.8 ⩽LOQ 0.12 8.1 15.3 5.9 13.6 3.6 ⩽LOQ 109 2 1.93 1.78117048346056
P33 3.218 45.74 319 2012-11-05 00:00:00 4.59 315.53 16 7.27 207 7.2 203 ⩽LOQ 2.7 19.9 0 6.5 6.4 10.4 298 8.2 15.9 0 79 18.2 3.2 ⩽LOQ 0.11 8.2 15.8 5.6 14.4 3.7 ⩽LOQ 108 2.03 1.97 1.5
P33 3.218 45.74 319 2012-12-03 00:00:00 4.33 315.79 13.1 6.99 197 7.25 192 ⩽LOQ 3.8 13.4 0 6.2 6.9 9.7 277 8.3 17.1 0 76 16 3.1 ⩽LOQ 0.13 7.5 16.1 5 12.8 3.3 ⩽LOQ 110 1.9 1.86 1.06382978723404
P33 3.218 45.74 319 2013-01-07 00:00:00 5.97 314.15 11.1 7.18 176 7.35 173 ⩽LOQ 6 68.9 0 5.9 6.8 10.8 289 8.8 13.5 0 72 13.3 4.8 ⩽LOQ 0.09 7 14.5 4.6 12 2.8 ⩽LOQ 109 1.78 1.7 2.29885057471264
P33 3.218 45.74 319 2013-02-04 00:00:00 3.79 316.33 10.3 7.06 166 7.3 165 ⩽LOQ 6.5 17.4 0 5.2 5.8 9 264 8.7 13.6 0 63 13.1 5.4 ⩽LOQ 0.11 6.8 13.2 4.4 10.4 2.3 ⩽LOQ 117 1.63 1.53 3.16455696202531
P33 3.218 45.74 319 2013-03-11 00:00:00 3.85 316.27 8 7.3 177 7.2 165 ⩽LOQ 7.3 12.2 0 4.9 5.7 9.1 263 9.1 12 0 60 14 6.2 ⩽LOQ 0.12 6.7 13.9 4.4 10.5 2.3 ⩽LOQ 104 1.62 1.57 1.56739811912226
P33 3.218 45.74 319 2013-04-08 00:00:00 5.98 314.14 7.4 7.27 147 7.4 145 0.2 7.8 15.6 0 4.4 5.5 8.1 234 8.9 12.3 0 54 11.3 5.8 ⩽LOQ 0.08 6 11.6 3.7 8.9 2 ⩽LOQ 109 1.42 1.32 3.64963503649634
P33 3.218 45.74 319 2013-05-06 00:00:00 4.99 315.13 10.4 7.14 144 7.25 142 0.3 6.4 24.7 0 4.6 4.6 13.7 0 56 9.1 6.1 ⩽LOQ 0.11 6.3 11.5 3.6 9.2 2.2 ⩽LOQ 105 1.4 1.33 2.56410256410256
P33 3.218 45.74 319 2013-06-03 00:00:00 5.53 314.59 11.6 7.08 157 7.2 154 0.5 4.7 17.1 0 6 5.1 10.7 258 8.85 15.2 0 73 8.6 5.2 ⩽LOQ 0.13 6.4 13.5 4.6 11.2 2.6 ⩽LOQ ⩽LOQ 1.66 1.61 1.52905198776759
P33 3.218 45.74 319 2013-07-01 00:00:00 4.27 315.85 11.7 7.04 158 7.2 159 0.2 3 24 0 5.4 5.4 9.5 252 8.75 14.5 0 66 9.2 4.1 ⩽LOQ 0.11 6.3 13.4 4.5 9.5 2.5 ⩽LOQ ⩽LOQ 1.54 1.52 0.653594771241831
P33 3.218 45.74 319 2013-07-29 00:00:00 3.85 316.27 13.1 6.89 187 7.2 186 ⩽LOQ 2.5 13.2 0 6.3 6.2 11.5 282 8.45 17.3 0 77 13.8 3.2 ⩽LOQ ⩽LOQ 7.3 16.7 5.7 11.2 2.8 ⩽LOQ ⩽LOQ 1.85 1.86 0.269541778975735
P33 3.218 45.74 319 2013-09-02 00:00:00 4.4 315.72 14.7 6.87 211 7.15 209 ⩽LOQ 2 46.7 0 6.9 7.1 11.9 317 8.5 17.4 0 84 14.2 3.7 ⩽LOQ 0.19 8.7 19.7 6.7 13.5 3.6 ⩽LOQ ⩽LOQ 2.02 2.22 4.71698113207548
P33 3.218 45.74 319 2013-10-07 00:00:00 4.43 315.69 17.3 6.72 229 6.95 212 ⩽LOQ 1.9 17.8 0 7 8.2 11.5 343 8.15 17.4 0 85 19.6 6 ⩽LOQ 0.18 10.6 19.9 6.3 12.8 3.7 ⩽LOQ ⩽LOQ 2.26 2.17 2.03160270880361
P33 3.218 45.74 319 2013-11-04 00:00:00 4.45 315.67 16.7 6.88 216 7.2 193 ⩽LOQ 3.1 17.6 0 7.2 6.8 11.9 312 8.4 17.7 0 88 16.1 5.4 ⩽LOQ 0.19 8.6 18.6 6.1 13.2 3.6 ⩽LOQ ⩽LOQ 2.16 2.1 1.40845070422535
P33 3.218 45.74 319 2013-12-02 00:00:00 4.29 315.83 13.4 190 7.15 176 ⩽LOQ 4 22.2 0 7.2 6.2 10.4 310 8.55 16.3 0 88 12.7 5.1 ⩽LOQ 0.15 7.2 16.6 5.6 12 3.2 ⩽LOQ 105 2.03 1.9 3.30788804071247
P33 3.218 45.74 319 2014-01-13 00:00:00 3.99 316.13 10 7.06 182 7.05 181 ⩽LOQ 5.7 15.4 0 5.8 6 10.7 282 8.75 14 0 71 12.3 6.1 ⩽LOQ 0.18 7.1 14.5 5.2 10.8 2.5 ⩽LOQ ⩽LOQ 1.76 1.69 2.02898550724638
P33 3.218 45.74 319 2014-02-10 00:00:00 3.38 316.74 9.3 7.07 170 7.1 170 0.3 6.3 20 0 5.1 5.8 10.5 301 9 13.4 0 62 11.7 7.5 ⩽LOQ 0.11 7.1 14.5 4.8 9.7 2.3 ⩽LOQ ⩽LOQ 1.61 1.6 0.311526479750772
P33 3.218 45.74 319 2014-03-10 00:00:00 3.92 316.2 8.7 7.03 165 7.1 165 0.4 7.1 0.5 0 4.9 5.5 10.6 288 9.1 14.3 0 60 10.6 6.9 ⩽LOQ 0.11 6.5 13.9 4.6 10 2.3 ⩽LOQ ⩽LOQ 0 0 0 0
P33 3.218 45.74 319 2014-04-07 00:00:00 4.31 315.81 8.2 7.01 166 7.25 166 0.2 5.2 9.8 0 5.4 5.2 9.7 258 8.6 13.2 0 66 10.6 5.8 ⩽LOQ 0.12 6.1 13.7 4.8 10.2 2.3 ⩽LOQ ⩽LOQ 0 0 0 0
P33 3.218 45.74 319 2014-05-12 00:00:00 4.43 315.69 9.4 184 7.3 184 ⩽LOQ 3.6 9.9 0 6 5.9 10 279 8.1 14.7 0 73 11.9 4.5 ⩽LOQ 0.14 6.8 17.3 5.2 10 2.5 ⩽LOQ ⩽LOQ 1 1 0 0
P33 3.218 45.74 319 2014-06-02 00:00:00 6.15 313.97 11.1 7 184 7.15 184 0.2 3.3 35.2 0 6.3 6.4 10.8 280 8.2 14.7 0 77 12.7 4.6 ⩽LOQ 0.16 6.8 16.2 5.6 10.8 2.6 ⩽LOQ ⩽LOQ 0 0 0 0
P33 3.218 45.74 319 2014-07-07 00:00:00 6.43 313.69 14.3 6.82 208 7 208 ⩽LOQ 1.5 31 0 6.9 7 11.1 316 8.3 16.8 0 84 15.6 3.9 ⩽LOQ 0.15 7.5 17.4 6.2 12.2 3 ⩽LOQ ⩽LOQ 0 0 0 0
P33 3.218 45.74 319 2014-07-28 00:00:00 4.37 315.75 16.7 6.86 227 7.25 227 ⩽LOQ 2.5 20.8 0 6.3 6.9 10.5 288 8.3 17.2 0 77 13.7 3.1 ⩽LOQ 0.14 7.4 16.8 5.8 12 3.4 ⩽LOQ ⩽LOQ 3 1 0 0
P33 3.218 45.74 319 2014-09-01 00:00:00 4.52 315.6 17.7 6.85 214 7.05 214 ⩽LOQ 2.2 47.7 0 6.9 6 12.5 364 8.6 18.1 0 84 11.3 1.5 ⩽LOQ 0.09 5.9 15.8 5.3 11.6 3.3 ⩽LOQ 104 0 0 0 0
P33 3.218 45.74 319 2014-10-06 00:00:00 4.6 315.52 17.9 6.82 243 7.05 243 ⩽LOQ 1.6 28.8 0 7.1 7 12.7 392 8.6 17.1 0 87 15.7 4.4 ⩽LOQ 7.7 17.7 6 12.2 3.4 ⩽LOQ ⩽LOQ 0 0 0 0
P33 3.218 45.74 319 2014-11-03 00:00:00 4.46 315.66 16.9 6.89 180 7.25 180 ⩽LOQ 1.6 45.5 0 6.5 7.1 11.4 291 8.35 16.9 0 79 12.1 3.4 ⩽LOQ ⩽LOQ 6.3 15.9 5.3 11.4 3.3 ⩽LOQ 100 2 0 3 0
P33 3.218 45.74 319 2018-11-08 11:00:00 3.87 14.5 7.2 212 7.2 210 ⩽LOQ 4.4 20 ⩽LOQ 5.9 7.2 19.7 ⩽LOQ 72 20 3.9 ⩽LOQ 0.15 0.15 16.8 5.7 11.9 3.3 ⩽LOQ 88 3.28 ⩽LOQ ⩽LOQ ⩽LOQ ⩽LOQ
P33 3.218 45.74 319 2014-12-01 00:00:00 4.8 315.32 13.9 6.95 195 7.15 195 ⩽LOQ 2.9 26.6 0 6.7 6.6 12.2 315 8.65 16.4 0 82 11 4.8 ⩽LOQ 0.08 6.1 17 5.6 12.7 3.4 ⩽LOQ 100 3 1 0 0
P33 3.218 45.74 319 2015-01-12 00:00:00 5.56 314.56 11.3 7.04 183 7.4 183 0.3 3.4 14 ⩽LOQ 6.6 6.2 11.8 303 8.65 15.1 ⩽LOQ 80 9 5.4 ⩽LOQ 0.11 6.2 15.4 5.4 11.1 2.8 ⩽LOQ ⩽LOQ 0.56 1 ⩽LOQ ⩽LOQ ⩽LOQ
P33 3.218 45.74 319 2015-01-19 00:00:00 5.91 314.21 ⩽LOQ 6.4 4.53
P33 3.218 45.74 319 2015-02-02 00:00:00 5.97 314.15 9.7 7.01 186 7.15 186 ⩽LOQ 4.8 11 ⩽LOQ 6.5 6.4 11.4 304 8.6 14.7 ⩽LOQ 79 9.9 6.1 ⩽LOQ 0.09 6 16.7 4.9 10.9 3.1 ⩽LOQ ⩽LOQ ⩽LOQ ⩽LOQ ⩽LOQ ⩽LOQ
P33 3.218 45.74 319 2015-03-02 00:00:00 3.51 316.61 9.2 7.08 196 7.3 196 ⩽LOQ 6.8 14 ⩽LOQ 6 6.7 11.5 317 8.8 13.7 ⩽LOQ 73 13.8 7.3 ⩽LOQ 0.1 8.3 17 5.9 10.7 2.7 ⩽LOQ ⩽LOQ 0.26 ⩽LOQ ⩽LOQ ⩽LOQ ⩽LOQ
P33 3.218 45.74 319 2015-03-30 11:00:00 3.87 316.25 8.2 7.1 182 7.25 182 0.3 5.8 14 13.6 ⩽LOQ 68 9.8 6.5 ⩽LOQ 0.035 6.4 15.9 5.7 10.4 2.5 ⩽LOQ ⩽LOQ
P33 3.218 45.74 319 2015-05-04 12:00:00 4.02 316.1 10.2 7.25 160 7.35 160 0.3 4 12 ⩽LOQ 5.6 6.1 10.3 298 8.85 13.5 ⩽LOQ 72 10.9 4.8 ⩽LOQ 0.04 5.9 16 5.3 9.8 2.4 ⩽LOQ ⩽LOQ 4.04 ⩽LOQ ⩽LOQ ⩽LOQ ⩽LOQ
P33 3.218 45.74 319 2015-06-01 00:00:00 4.56 315.56 10.3 7.03 189 7.35 189 ⩽LOQ 2.3 17 ⩽LOQ 5.9 6.2 10.7 268 8.7 14.7 ⩽LOQ 83 11.6 4.5 ⩽LOQ 0.045 6.5 16.8 5.7 10.5 2.6 ⩽LOQ ⩽LOQ 0.95 1 1 ⩽LOQ ⩽LOQ
P33 3.218 45.74 319 2015-07-06 12:30:00 4.63 315.49 15.8 7.14 226 7 218 ⩽LOQ 1.6 25 ⩽LOQ 6.8 6.7 9.9 285 8.3 18.1 ⩽LOQ 94 15.6 4 ⩽LOQ 0.15 7.5 18.7 6.4 12.6 3.3 ⩽LOQ 62 1.9 ⩽LOQ ⩽LOQ ⩽LOQ ⩽LOQ
P33 3.218 45.74 319 2015-07-27 00:00:00 4.81 315.31 19.5 6.87 203 6.8 210 ⩽LOQ 1.6 18 ⩽LOQ 7.7 7.8 11.6 322 8.15 20 ⩽LOQ 84 16.7 2.8 ⩽LOQ 0.13 7.1 16 5.5 13 3.6 ⩽LOQ 81 2.89 ⩽LOQ ⩽LOQ ⩽LOQ ⩽LOQ
P33 3.218 45.74 319 2015-08-31 00:00:00 4.7 315.42 21.9 7.04 222 7.05 212 0.3 1.7 17 ⩽LOQ 6.9 6.1 12.1 419 8.2 19.3 ⩽LOQ 76 18.1 2.6 ⩽LOQ 0.092 7.4 16.1 5.2 12.3 4.5 ⩽LOQ 81 3.71 ⩽LOQ ⩽LOQ ⩽LOQ ⩽LOQ
P33 3.218 45.74 319 2015-10-05 00:00:00 4.73 315.39 19 7.14 208 7.05 220 ⩽LOQ 1.4 12 ⩽LOQ 6.2 6.8 12.1 352 8.4 18.8 ⩽LOQ 76 16.3 4.3 ⩽LOQ 0.096 10.4 15.5 5.5 13.2 3.9 ⩽LOQ 73 1.9 ⩽LOQ ⩽LOQ ⩽LOQ ⩽LOQ
P33 3.218 45.74 319 2015-11-02 00:00:00 6.8 313.32 16.6 7.37 214 6.95 224 ⩽LOQ 3.7 16 ⩽LOQ 6.3 6.3 11.5 315 8.4 17.6 ⩽LOQ 82 17.8 3.5 ⩽LOQ 0.18 8.6 17.9 6 13.3 3.7 ⩽LOQ 104 2.65 ⩽LOQ ⩽LOQ 4 ⩽LOQ
P33 3.218 45.74 319 2015-12-07 00:00:00 4.83 315.29 14 6.95 218 7.25 224 0.2 4.4 16 ⩽LOQ 6.8 7.4 12.9 340 8.45 15.4 ⩽LOQ 88 16.7 3.7 ⩽LOQ 0.13 8.3 18.9 6.3 13.2 3.3 ⩽LOQ 103 1.01 ⩽LOQ ⩽LOQ ⩽LOQ ⩽LOQ
P33 3.218 45.74 319 2016-01-04 00:00:00 6.6 313.52 11.2 6.96 220 7.15 222 ⩽LOQ 5.3 14 ⩽LOQ 7.3 7.3 11 319 8.2 14.4 ⩽LOQ 85 16.4 4.5 ⩽LOQ 0.11 8.2 19 6.5 13 3.1 ⩽LOQ 96 1.04 ⩽LOQ ⩽LOQ ⩽LOQ ⩽LOQ
P33 3.218 45.74 319 2016-02-01 00:00:00 6.14 313.98 9.8 6.93 192 7.2 186 ⩽LOQ 6 9.9 ⩽LOQ 7 6.9 11.4 326 8.65 12.3 ⩽LOQ 74 12.8 6.4 ⩽LOQ 0.047 6.2 14.6 5 10.7 2.4 ⩽LOQ 101 0.51 ⩽LOQ ⩽LOQ ⩽LOQ ⩽LOQ
P33 3.218 45.74 319 2016-03-07 00:00:00 5.47 314.65 7.2 7.25 158 7.3 157 ⩽LOQ 5.3 12 ⩽LOQ 6.1 5.7 10.6 312 8.7 12.2 ⩽LOQ 62 9.1 6.1 ⩽LOQ 0.08 6.1 12.4 4.3 10.3 2.2 ⩽LOQ 104 4.15 ⩽LOQ ⩽LOQ ⩽LOQ ⩽LOQ
P33 3.218 45.74 319 2016-04-04 00:00:00 6.41 313.71 7.2 7.33 170 7.2 159 0.2 6.4 11 ⩽LOQ 5.1 6.7 9.2 266 8.7 13.1 ⩽LOQ 62 10.5 5.4 ⩽LOQ 0.063 6.2 13.2 4.6 9.9 2.2 ⩽LOQ 95 1.02 ⩽LOQ ⩽LOQ ⩽LOQ ⩽LOQ
P33 3.218 45.74 319 2016-05-09 00:00:00 4.55 315.57 10.9 7.13 165 7.2 170 0.2 2.9 9.4 ⩽LOQ 5.1 5.7 9.3 277 9 14.2 ⩽LOQ 71 8.1 3.4 ⩽LOQ 0.13 5.7 13.7 4.8 10.5 2.5 ⩽LOQ 85 0.54 ⩽LOQ ⩽LOQ ⩽LOQ ⩽LOQ
P33 3.218 45.74 319 2016-06-06 00:00:00 3.69 316.43 14.6 6.98 175 7.1 173 ⩽LOQ 4 13 ⩽LOQ 5.9 5.2 10.3 278 8.8 15.3 ⩽LOQ 76 7.4 3.1 ⩽LOQ 0.14 5.3 13.8 5 10.4 2.6 ⩽LOQ 83 0.47 ⩽LOQ ⩽LOQ ⩽LOQ ⩽LOQ
P33 3.218 45.74 319 2016-07-04 00:00:00 6.19 313.93 14.5 6.95 181 7.2 181 ⩽LOQ 1.4 17 ⩽LOQ 6.3 5.6 11.1 348 8.4 16 ⩽LOQ 88 7.6 1.7 ⩽LOQ 0.15 5.1 15.3 5.3 10.9 2.7 ⩽LOQ 87 0.56 ⩽LOQ ⩽LOQ ⩽LOQ ⩽LOQ
P33 3.218 45.74 319 2016-07-25 00:00:00 6.22 313.9 15.2 6.89 195 7.1 222 ⩽LOQ 1.4 18 ⩽LOQ 7.2 6.4 11.5 297 8.4 16.1 ⩽LOQ 87 9.5 1.4 ⩽LOQ 0.14 5.5 15.6 5.1 10.2 2.8 ⩽LOQ 67 1.59 ⩽LOQ ⩽LOQ ⩽LOQ ⩽LOQ
P33 3.218 45.74 319 2016-08-29 00:00:00 6.31 313.81 17.6 6.82 214 7 211 ⩽LOQ 1.1 20 ⩽LOQ 7.2 6.4 11.8 306 8.6 17.5 ⩽LOQ 86 14.3 ⩽LOQ ⩽LOQ 0.15 6.9 16.8 6 11.7 3.1 ⩽LOQ 97 3.86 ⩽LOQ ⩽LOQ ⩽LOQ ⩽LOQ
P33 3.218 45.74 319 2016-10-03 00:00:00 6.42 313.7 18.3 6.74 199 ⩽LOQ 7.1 8 13.2 352 8.6 1.37 ⩽LOQ ⩽LOQ ⩽LOQ ⩽LOQ
P33 3.218 45.74 319 2016-11-07 00:00:00 6.39 313.73 15.4 6.89 204 7 199 ⩽LOQ 2.6 19 ⩽LOQ 6 6.6 10.7 312 8.4 16.9 ⩽LOQ 73 15.5 3.7 ⩽LOQ 0.14 7.8 16.2 5.6 12.8 3.4 ⩽LOQ 97 1.18 ⩽LOQ ⩽LOQ ⩽LOQ ⩽LOQ
P33 3.218 45.74 319 2016-12-05 00:00:00 5.96 314.16 13.5 6.96 204 7.1 198 ⩽LOQ 4.6 16 ⩽LOQ 6.1 6.7 11.2 319 8.5 15.1 ⩽LOQ 74 14.4 7.3 ⩽LOQ 0.16 9.3 16.4 5.7 11.9 3.2 ⩽LOQ 117 1.46 1 ⩽LOQ 1 ⩽LOQ
P33 3.218 45.74 319 2017-01-09 00:00:00 6.38 313.74 10.5 7 197 7.3 199 0.13 4.6 17 ⩽LOQ 6.3 7.4 10.5 298 8.4 14.5 ⩽LOQ 76 13.9 6.7 ⩽LOQ 0.12 8.8 15.9 5.4 12 2.9 ⩽LOQ 116 2.78 1 ⩽LOQ 1 ⩽LOQ
P33 3.218 45.74 319 2017-02-06 00:00:00 5.35 314.77 7.7 7.16 209 7.1 206 0.13 8.4 18 ⩽LOQ 5.8 6.7 9.7 298 8.3 13.2 ⩽LOQ 70 16.6 8.1 ⩽LOQ 0.1 9.6 18.2 6.2 11.7 2.6 ⩽LOQ 105 0.95 ⩽LOQ ⩽LOQ ⩽LOQ ⩽LOQ
P33 3.218 45.74 319 2017-03-06 00:00:00 5.97 314.15 8.4 7.28 166 7.5 164 0.6 6.1 15 ⩽LOQ 5.1 6.4 9 252 8.7 13.1 ⩽LOQ 62 11.3 6.7 ⩽LOQ 0.11 7 14.1 4.7 10.6 2.3 ⩽LOQ 84 0.58 ⩽LOQ ⩽LOQ ⩽LOQ ⩽LOQ
P33 3.218 45.74 319 2017-04-03 00:00:00 5.97 314.15 9.1 7.28 159 7.3 161 0.11 7 11 ⩽LOQ 5.4 5.2 10.5 264 9 12.6 ⩽LOQ 66 10 5.2 ⩽LOQ 0.13 6.3 14 4.8 10.6 2.4 ⩽LOQ 95 0.83 ⩽LOQ ⩽LOQ ⩽LOQ ⩽LOQ
P33 3.218 45.74 319 2017-05-09 00:00:00 6.32 313.8 10.4 7.3 179 7.3 178 0.12 3.7 14 ⩽LOQ 5.8 6.3 12.1 314 9 15.6 ⩽LOQ 70 12.4 4.7 ⩽LOQ 0.12 7.5 15.3 5.7 11.7 2.7 ⩽LOQ 90 1.78 1 1 ⩽LOQ ⩽LOQ
P33 3.218 45.74 319 2017-06-06 00:00:00 6.26 313.86 12.2 7.06 177 7.2 182 0.11 6.1 15 ⩽LOQ 5.9 6.8 12.9 316 8.9 14.9 ⩽LOQ 71 11.9 3.7 ⩽LOQ 0.15 6.8 13.5 4.6 10.3 2.4 ⩽LOQ 103 4.94 3 1 ⩽LOQ ⩽LOQ
P33 3.218 45.74 319 2017-07-03 00:00:00 6.12 314 17.6 6.88 206 7.2 204 0.09 3.5 13 ⩽LOQ 7.2 6.2 11.5 312 8.2 17.7 ⩽LOQ 87 15 3.7 ⩽LOQ 0.17 8.4 16.5 5.3 13.5 3.4 ⩽LOQ 100 4.44 ⩽LOQ ⩽LOQ ⩽LOQ ⩽LOQ
P33 3.218 45.74 319 2017-07-24 00:00:00 6.32 313.8 18.6 6.92 201 7 199 0.1 2.4 19 ⩽LOQ 6.5 6.3 16.3 342 9 20.4 ⩽LOQ 79 16 2.7 ⩽LOQ 0.22 7.6 17 5.8 13.9 3.7 ⩽LOQ 100 1.61 1 ⩽LOQ 1 ⩽LOQ
P33 3.218 45.74 319 2017-09-04 00:00:00 6.32 313.8 21.2 6.92 203 7.1 203 0.34 2.4 17 ⩽LOQ 6.3 6.7 13.2 337 8.7 17.8 ⩽LOQ 77 17 2.2 ⩽LOQ 0.23 7.4 15.1 5.1 13.1 3.5 ⩽LOQ 110 3.07 ⩽LOQ ⩽LOQ ⩽LOQ ⩽LOQ
P33 3.218 45.74 319 2017-10-02 00:00:00 6.42 313.7 20.4 6.85 204 7.1 202 1.7 1.7 20 ⩽LOQ 6.2 7.3 13.3 352 8.6 18.1 ⩽LOQ 76 18 3.2 ⩽LOQ 0.16 7.7 16.1 5.4 14 3.8 ⩽LOQ 110 0.23 1 1 1 ⩽LOQ
P33 3.218 45.74 319 2017-11-06 00:00:00 6.4 313.72 15.2 6.85 218 7.4 218 0.08 2 17 ⩽LOQ 6.9 7.1 14.8 353 8.9 16.7 ⩽LOQ 84 19 2.7 ⩽LOQ 0.14 8.2 17.2 6.1 13.6 3.4 ⩽LOQ 130 2.51 ⩽LOQ ⩽LOQ ⩽LOQ ⩽LOQ
P33 3.218 45.74 319 2017-12-04 00:00:00 6.45 313.67 13.6 7.03 225 7.4 255 ⩽LOQ 3.1 20 ⩽LOQ 6.6 7 15.1 342 8.1 15.9 ⩽LOQ 80 19 3.5 ⩽LOQ 0.16 8.7 17.3 5.9 13.4 3.1 0.03 89 2.06 4 ⩽LOQ
P33 3.218 45.74 319 2018-01-08 12:00:00 5.42 10 7.26 195 7.4 202 0.29 6.3 15 ⩽LOQ 6.1 6 12.2 317 8.6 12.7 ⩽LOQ 74 15 6.2 ⩽LOQ 0.084 0.084 14.7 4.9 11.6 2.7 ⩽LOQ 100 4.98 10 ⩽LOQ ⩽LOQ 1
P33 3.218 45.74 319 2018-02-05 13:00:00 5.7 7 7.4 160 7.4 162 0.14 4.8 13 ⩽LOQ 4.5 5.4 11 284 8.8 13.2 ⩽LOQ 55 9.9 5.6 ⩽LOQ 0.14 0.14 12.3 4 10.4 2.4 ⩽LOQ 120 2.08 ⩽LOQ ⩽LOQ ⩽LOQ ⩽LOQ
P33 3.218 45.74 319 2018-03-05 13:00:00 6.2 8.6 7.39 180 7.5 157 0.17 5.5 10 ⩽LOQ 4.7 5.4 10.9 290 9.1 11.5 ⩽LOQ 57 11 6.6 ⩽LOQ 0.12 0.12 12 3.9 10 2 ⩽LOQ 110 3 1 ⩽LOQ ⩽LOQ ⩽LOQ
P33 3.218 45.74 319 2018-04-09 13:00:00 6.03 8.2 7.39 183 7.6 149 0.27 4.9 14 ⩽LOQ 4.9 5 12.2 295 8.9 13.9 ⩽LOQ 60 11 5.5 ⩽LOQ 0.14 0.14 12 3.9 9.5 2.2 ⩽LOQ 94 4.18 1 ⩽LOQ ⩽LOQ ⩽LOQ
P33 3.218 45.74 319 2018-05-14 12:30:00 5.97 8.4 7.05 160 7.4 157 0.09 2.5 13 ⩽LOQ 5.4 4.9 12.4 283 9.2 13.7 ⩽LOQ 65 9.9 3.3 ⩽LOQ 0.14 0.14 12.3 4 9.9 2.2 ⩽LOQ 94 3.33 ⩽LOQ ⩽LOQ
P33 3.218 45.74 319 2018-06-11 12:30:00 3.03 13.2 7.2 158 7.4 163 ⩽LOQ 2.1 15 ⩽LOQ 6.1 5.3 11.6 279 8.8 16.9 ⩽LOQ 74 8.4 2 ⩽LOQ 0.14 0.14 13.4 4.2 9.9 2.6 ⩽LOQ 93 3.07 25
P33 3.218 45.74 319 2018-07-02 12:00:00 4.4 13.7 7.03 168 7.2 216 0.21 1.2 16 ⩽LOQ 6.5 6.2 12.6 313 9 15.2 ⩽LOQ 79 8.2 1.4 ⩽LOQ 0.15 0.15 13.8 4.6 10.4 2.7 ⩽LOQ 91 2.79 ⩽LOQ ⩽LOQ ⩽LOQ ⩽LOQ
P33 3.218 45.74 319 2018-07-23 12:15:00 6.1 14.4 7.04 180 7.2 176 0.12 12.8 20 ⩽LOQ 6.7 5.8 13.3 320 8.9 15.7 ⩽LOQ 81 8.9 1 ⩽LOQ 0.17 0.17 15.2 5 11.3 2.8 ⩽LOQ 92 0.55 ⩽LOQ ⩽LOQ ⩽LOQ ⩽LOQ
P33 3.218 45.74 319 2018-09-03 12:00:00 4.38 14.6 7.15 195 7.2 190 ⩽LOQ 1.3 16 ⩽LOQ 7.2 6.3 13.4 331 8.6 16.2 ⩽LOQ 87 11 ⩽LOQ ⩽LOQ 0.14 0.14 16.6 5.2 11.7 3.1 ⩽LOQ 87 1.07 ⩽LOQ ⩽LOQ ⩽LOQ
P33 3.218 45.74 319 2018-12-03 12:00:00 6.46 13.8 7.18 175 7.5 192 ⩽LOQ 3.7 15 ⩽LOQ 5.2 6.7 11.7 308 8.8 17.6 ⩽LOQ 63 13 4 ⩽LOQ 0.12 0.12 13.2 4.2 10.2 2.7 ⩽LOQ 96 3.74 ⩽LOQ ⩽LOQ ⩽LOQ ⩽LOQ
P33 3.218 45.74 319 2019-01-07 12:00:00 4.25 11.2 7.31 176 7.2 174 0.09 3.5 13 ⩽LOQ 6 6.2 10.7 298 8.58 17.9 ⩽LOQ 73 12 3.6 ⩽LOQ 0.16 0.16 14 4.8 11.1 2.7 ⩽LOQ 100 3.22 ⩽LOQ ⩽LOQ ⩽LOQ ⩽LOQ
P33 3.218 45.74 319 2019-02-11 12:15:00 5.3 10.1 7.23 200 7.2 203 ⩽LOQ 7.4 16 ⩽LOQ 5.9 7.3 11.6 327 8.94 16.1 ⩽LOQ 71 16 5 ⩽LOQ 0.13 0.13 16.3 6 11 2.7 ⩽LOQ 91 0.73 ⩽LOQ ⩽LOQ ⩽LOQ ⩽LOQ
P33 3.218 45.74 319 2019-03-04 12:00:00 4.05 8.4 7.74 195 7.2 191 ⩽LOQ 7.7 13 ⩽LOQ 5.6 6.4 9.9 302 7.2 13.9 ⩽LOQ 68 16 6.7 ⩽LOQ 0.11 0.11 17.2 6.2 12.7 2.9 ⩽LOQ 78 4.36 ⩽LOQ ⩽LOQ ⩽LOQ ⩽LOQ
P33 3.218 45.74 319 2019-04-01 12:15:00 6.98 8.8 7.67 156 7.2 173 ⩽LOQ 5.5 13 ⩽LOQ 5 4.9 9.7 277 9.1 13 ⩽LOQ 61 12 4.3 ⩽LOQ 0.11 0.11 11.8 4 9.7 2.2 ⩽LOQ 89 4.82 ⩽LOQ ⩽LOQ ⩽LOQ ⩽LOQ
P33 3.218 45.74 319 2019-05-13 13:00:00 6.6 11.6 7.4 145 7.1 141 ⩽LOQ 3 17 ⩽LOQ 4.4 4.3 9.1 299 8.8 14.9 ⩽LOQ 54 9.8 3.4 ⩽LOQ 0.12 0.12 11 3.7 10.3 2.3 ⩽LOQ 99 1.01 ⩽LOQ ⩽LOQ ⩽LOQ ⩽LOQ
P33 3.218 45.74 319 2019-06-03 12:00:00 6.86 11.3 7.21 152 7.2 251 0.14 3.3 9.1 ⩽LOQ 4.7 4.5 9.4 264 8.9 13.4 ⩽LOQ 57 10 3.2 ⩽LOQ 0.13 0.13 12 4.1 11 2.5 ⩽LOQ 91 2.48 ⩽LOQ ⩽LOQ ⩽LOQ ⩽LOQ
P33 3.218 45.74 319 2019-07-01 12:00:00 6.95 16.4 7.29 181 7.1 189 ⩽LOQ 2.2 17 ⩽LOQ 5.9 5.3 10.7 346 8.6 17.8 ⩽LOQ 72 15 2.4 ⩽LOQ 0.18 0.18 13.3 4.6 12 3.5 ⩽LOQ 91 3.62 ⩽LOQ ⩽LOQ ⩽LOQ ⩽LOQ
P33 3.218 45.74 319 2019-07-29 00:00:00 4.36 19.2 7.18 197 7.1 258 0.17 2 19 ⩽LOQ 6.1 6 11.5 320 8.9 18.6 ⩽LOQ 74 17 ⩽LOQ ⩽LOQ 0.1 0.1 14 4.4 12.9 4.2 ⩽LOQ 99 3.57 ⩽LOQ 5 ⩽LOQ
P33 3.218 45.74 319 2019-09-02 12:45:00 6.65 21.3 7.01 180 7.1 288 0.13 3.2 17 ⩽LOQ 5.1 5.7 11.3 322 9 20.9 ⩽LOQ 62 17 ⩽LOQ ⩽LOQ 0.21 0.21 12.6 4.4 14.5 4.5 0.03 110 2.81 ⩽LOQ ⩽LOQ ⩽LOQ ⩽LOQ
P33 3.218 45.74 319 2019-10-07 12:00:00 6.57 20.2 7.14 189 7 181 ⩽LOQ 2.4 19 ⩽LOQ 5.6 6.2 12.8 301 8.7 18.5 ⩽LOQ 68 18 1 ⩽LOQ 0.16 0.16 12.8 4.6 14.6 4.2 ⩽LOQ 110 0.32 ⩽LOQ ⩽LOQ ⩽LOQ ⩽LOQ
P33 3.218 45.74 319 2019-11-04 12:00:00 6.32 17.1 7.21 192 6.9 202 ⩽LOQ 2 19 ⩽LOQ 5.6 5.8 10.5 300 8.9 18.2 ⩽LOQ 68 16 3.4 ⩽LOQ 0.16 0.16 14.1 5.3 14.5 4 0.03 100 1.73 15 ⩽LOQ ⩽LOQ ⩽LOQ
P33 3.218 45.74 319 2019-12-02 12:00:00 5.04 14 7.35 187 7.2 267 0.1 8.5 20 ⩽LOQ 5.7 6.4 10.7 297 8.7 16.2 ⩽LOQ 70 14 4.8 ⩽LOQ 0.15 0.15 14.3 5 12.8 4 ⩽LOQ 100 0.24 ⩽LOQ ⩽LOQ ⩽LOQ ⩽LOQ
P33 3.218 45.74 319 2020-01-06 12:00:00 12.1 7.54 182 7.1 176 0.17 4.1 13 ⩽LOQ 5.7 5.8 10.4 215 8.8 16.8 ⩽LOQ 69 11 5.9 ⩽LOQ 0.13 7.3 14.5 5 12 3.3 ⩽LOQ 100 1.6 1 1 ⩽LOQ ⩽LOQ 1
P33 3.218 45.74 319 2020-02-03 12:30:00 11.1 7.61 170 7.3 170 ⩽LOQ 10.1 11 ⩽LOQ 5.4 6.6 10.5 325 8.9 16.9 ⩽LOQ 65 12 58.3 ⩽LOQ 0.11 7.3 13.6 5.8 13.4 3 ⩽LOQ 92 4.9 ⩽LOQ ⩽LOQ ⩽LOQ ⩽LOQ ⩽LOQ
P33 3.218 45.74 319 2020-03-09 12:15:00 8.9 8.06 185 7.2 169 0.08 5.8 14 ⩽LOQ 5.2 5.8 9.3 262 8.8 14.8 ⩽LOQ 63 11 4.4 ⩽LOQ ⩽LOQ 6.4 13.2 4.8 11.2 2.8 ⩽LOQ 84 1.61 ⩽LOQ ⩽LOQ ⩽LOQ ⩽LOQ ⩽LOQ
P33 3.218 45.74 319 2020-06-08 12:30:00 11.6 8.48 196 7.4 183 ⩽LOQ 2.1 9.4 ⩽LOQ 6.1 6.9 10.7 284 8.4 14.7 ⩽LOQ 74 10 2.8 ⩽LOQ 0.076 5.7 14.5 5.5 11.7 2.8 0.03 97 2.34 ⩽LOQ ⩽LOQ 5 1 ⩽LOQ
P33 3.218 45.74 319 2020-07-06 12:30:00 12.5 6.91 193 6.9 193 ⩽LOQ 2.7 ⩽LOQ 7 6.6 12.3 309 8.6 17.1 ⩽LOQ 85 9.9 3.7 ⩽LOQ 0.16 7.4 15.4 5.7 11.4 3 ⩽LOQ 90 2.41 1 1 ⩽LOQ ⩽LOQ 1
P33 3.218 45.74 319 2020-07-27 12:15:00 15.3 6.95 200 6.9 200 ⩽LOQ 2 22 ⩽LOQ 6.4 6.5 14.6 327 8.5 19.5 ⩽LOQ 78 15 2.4 ⩽LOQ 0.12 8.3 15.7 5.8 13.1 4 0.03 94 0.41 ⩽LOQ ⩽LOQ ⩽LOQ ⩽LOQ ⩽LOQ
P33 3.218 45.74 319 2020-09-07 12:30:00 16.9 6.71 200 7 203 0.34 1.6 17 ⩽LOQ 6.8 6.4 11.8 387 8.1 19.8 ⩽LOQ 84 14 ⩽LOQ 0.04 0.12 7.6 14.3 5.6 12.5 3.8 ⩽LOQ 98 3.28 ⩽LOQ ⩽LOQ ⩽LOQ ⩽LOQ
P33 3.218 45.74 319 2020-10-05 12:15:00 18.8 6.62 168 6.9 266 0.11 1.8 17 ⩽LOQ 5.3 5.8 11.6 296 9 18.1 ⩽LOQ 64 14 2.3 ⩽LOQ 0.16 6.7 10.9 4.2 11.4 3.4 ⩽LOQ 110 4.72 1 1 ⩽LOQ ⩽LOQ ⩽LOQ
P33 3.218 45.74 319 2020-11-02 12:00:00 16.2 6.72 175 7.3 243 0.09 3.3 14 ⩽LOQ 5.5 6.3 9.9 293 8.6 18.8 ⩽LOQ 67 13 2.7 ⩽LOQ 0.16 7.6 12.5 4.6 11.5 3.7 ⩽LOQ 100 2.84 ⩽LOQ ⩽LOQ ⩽LOQ ⩽LOQ ⩽LOQ
P33 3.218 45.74 319 2020-12-07 12:15:00 14.1 6.9 170 7.3 182 0.15 3.4 13 ⩽LOQ 5.5 5.7 8.8 260 8.7 16.9 ⩽LOQ 66 13 3.3 ⩽LOQ 0.18 7.9 12.6 4.4 12 3.4 ⩽LOQ 140 2.12 ⩽LOQ ⩽LOQ ⩽LOQ ⩽LOQ ⩽LOQ
P33 3.218 45.74 319 2021-01-11 12:15:00 14.2 6.92 197 7.3 199 0.91 3 17 ⩽LOQ 6.4 6.8 11.2 291 8.9 17.3 ⩽LOQ 77 14 2.5 ⩽LOQ 0.14 7.7 15.6 5.5 13.1 3.8 ⩽LOQ 110 0.51 ⩽LOQ 5 ⩽LOQ
P33 3.218 45.74 319 2021-02-08 12:15:00 12.4 7.12 174 7.1 172 0.3 2.6 14 ⩽LOQ 5.5 5.6 9.9 320 8.7 15.3 ⩽LOQ 66 12 4.3 ⩽LOQ 0.14 7.4 13.4 4.9 12.3 3 ⩽LOQ 99 0.5 ⩽LOQ ⩽LOQ ⩽LOQ ⩽LOQ ⩽LOQ
P33 3.218 45.74 319 2021-03-01 12:00:00 12.4 7.14 175 7.2 178 0.11 2.6 12 ⩽LOQ 5.7 5.8 10.8 278 8.9 15.5 ⩽LOQ 69 12 4.8 ⩽LOQ 0.17 7.8 14.7 5 11.4 3.2 0.02 130 0.14 ⩽LOQ ⩽LOQ ⩽LOQ ⩽LOQ ⩽LOQ
P33 3.218 45.74 319 2021-05-03 13:00:00 9.5 7.38 177 7.1 180 0.28 5 14 ⩽LOQ 5.4 5.4 11.2 303 8.9 14.7 ⩽LOQ 66 13 2.9 ⩽LOQ 0.13 7.4 13 4.9 10.8 2.8 0.02 88 2.17 ⩽LOQ ⩽LOQ ⩽LOQ ⩽LOQ ⩽LOQ
P33 3.218 45.74 319 2021-06-07 12:00:00 11.7 7.28 158 7.1 163 0.42 2.1 8.6 ⩽LOQ 5.6 5.2 13 278 8.8 6.5 ⩽LOQ 68 9.5 2.2 ⩽LOQ 0.078 6 10.5 4 11 3 0.03 95 4.68 ⩽LOQ ⩽LOQ 10 ⩽LOQ ⩽LOQ
P33 3.218 45.74 319 2021-07-05 12:00:00 15.5 7.15 184 7 185 0.56 2.4 18 ⩽LOQ 6.2 6 11.1 318 8.7 18.6 ⩽LOQ 76 13 1.2 ⩽LOQ 0.14 6.7 14.7 5 12.7 4.7 ⩽LOQ 95 1.02 1 1 ⩽LOQ ⩽LOQ 1
P33 3.218 45.74 319 2021-07-26 12:15:00 15 6.79 185 7 269 0.08 2.6 15 ⩽LOQ 6.7 6.2 12.3 304 8.7 17 ⩽LOQ 82 12 1 ⩽LOQ 0.15 6.5 14.2 5.3 12.9 3.8 ⩽LOQ 93 1.26 ⩽LOQ ⩽LOQ ⩽LOQ 1


Traces elements chemical analysis

Station ID Longitude Latitude Altitude Sampling Time Aluminium Antimony Arsenic Baryum Beryllium Boron Bromine Cadmium Chromium Cobalt Copper Tin Iron Gadolinium Lithium Manganese Mercury Molybdenum Neodymium Nickel Lead Rubidium Selenium Strontium Uranium Vanadium Zinc
degrees degrees m UTC μg/l μg/l μg/l μg/l μg/l μg/l μg/l μg/l μg/l μg/l μg/l μg/l μg/l μg/l μg/l μg/l μg/l μg/l μg/l μg/l μg/l μg/l μg/l μg/l μg/l μg/l μg/l
P33 3.218 45.74 319 2011-02-14 00:00:00 7.27 1.07 2.66 5.56 0.003 25.1 17.51 ⩽LOQ 0.06 0.045 1.08 ⩽LOQ 5.11 0.003 22.91 1.808 ⩽LOQ 0.29 0.008 0.14 0.04 5.5 0.042 110.7 0.09 0.79 0.39
P33 3.218 45.74 319 2011-02-28 00:00:00 5.23 1.01 2.55 5.69 0.004 23.09 18.7 0.001 0.07 0.042 1 ⩽LOQ 3.9 0.003 22.69 1.271 0.023 0.26 0.007 0.13 0.039 5.42 0.051 114.7 0.09 0.72 0.66
P33 3.218 45.74 319 2011-03-14 00:00:00 21.17 1.06 2.48 5.9 0.005 22.64 18.02 0.002 0.33 0.082 1.09 0.009 5.9 0.003 22.61 0.208 0.004 0.35 0.007 0.26 0.034 5.3 0.042 116.8 0.09 0.71 0.63
P33 3.218 45.74 319 2011-03-28 00:00:00 4.84 1 2.49 5.85 0.003 25.43 21.19 0.003 0.09 0.051 1.24 0.038 11.69 0.004 23.7 1.008 0.021 0.26 0.008 0.08 0.041 5.21 0.048 118.5 0.09 0.71 0.22
P33 3.218 45.74 319 2011-04-11 00:00:00 4.6 1.01 2.47 5.37 0.002 23.81 18.03 0.002 0.07 0.04 1.08 0.005 9.99 0.003 22.88 0.587 0.004 0.21 0.008 0.02 0.094 4.94 0.038 110.1 0.07 0.64 0.34
P33 3.218 45.74 319 2011-04-26 00:00:00 5.46 1.01 2.59 5.91 0.005 22.39 21.77 0.004 0.35 0.048 2.16 0.02 5.94 0.003 20.89 1.162 0.009 0.4 0.009 0.28 0.019 5.35 0.036 116.9 0.09 0.72 0.05
P33 3.218 45.74 319 2011-05-09 00:00:00 4.76 1.03 2.57 6.75 0.004 22.58 24.65 0.002 0.08 0.04 1.67 ⩽LOQ 3.78 0.003 19.77 1.027 ⩽LOQ 0.25 0.008 0.19 0.059 5.59 0.044 122 0.1 0.7 0.87
P33 3.218 45.74 319 2011-05-23 00:00:00 4.35 1.13 2.81 10.4 0.008 37.16 32.04 0.003 0.09 0.049 1.38 0.021 11.09 0.005 27.29 1.934 0.013 0.22 0.01 0.26 0.11 6.28 0.045 140.4 0.11 0.8 1.89
P33 3.218 45.74 319 2011-06-06 00:00:00 7.1 1.32 3.17 13.64 0.011 54.52 38.7 0.004 2.6 0.065 1.98 0.014 12.96 0.006 31.33 1.22 0.005 1.32 0.011 1.39 0.128 7.96 0.037 159.5 0.1 0.99 0.74
P33 3.218 45.74 319 2011-06-20 00:00:00 3.06 1.41 3.34 14.18 0.014 58.66 37.63 0.002 0.04 0.055 2.76 ⩽LOQ 12.99 0.006 30.25 5.002 ⩽LOQ 0.28 0.012 0.23 0.208 8.61 0.053 156.1 0.11 1.05 1.77
P33 3.218 45.74 319 2011-07-04 00:00:00 3.71 1.27 3.34 14.22 0.006 59.16 39.76 0.003 0.05 0.053 1.7 ⩽LOQ 6.63 0.006 31.66 0.549 ⩽LOQ 0.27 0.011 0.18 0.023 8.89 0.043 159.5 0.12 1.04 2.16
P33 3.218 45.74 319 2011-07-18 00:00:00 2.3 1.44 3.46 14.1 0.006 64.64 37.57 0.004 0.04 0.047 1.76 ⩽LOQ 6.84 0.005 30.94 0.613 ⩽LOQ 0.27 0.01 0.2 0.028 8.77 0.036 148 0.1 1.07 2.04
P33 3.218 45.74 319 2011-08-16 00:00:00 2.39 1.55 3.65 13.43 0.009 59.05 41.02 0.004 0.03 0.053 1.82 ⩽LOQ 5.38 0.006 29.76 4.078 0.024 0.31 0.01 0.17 0.018 9.45 0.042 152.7 0.1 1.17 0.2
P33 3.218 45.74 319 2011-08-29 00:00:00 2.37 1.57 3.73 13.64 0.011 58.34 39.84 0.004 0.03 0.057 1.88 0.005 10.15 0.006 29.69 2.78 0.737 0.34 0.01 0.22 0.025 9.27 0.051 144.2 0.1 1.24 0.24
P33 3.218 45.74 319 2011-09-12 00:00:00 2.47 1.44 3.57 12.89 0.098 52.46 37.6 0.004 0.03 0.062 2.49 ⩽LOQ 8.75 0.005 25.61 1.947 ⩽LOQ 0.33 0.011 0.2 0.015 8.97 0.049 142.1 0.09 1.17 0.35
P33 3.218 45.74 319 2011-09-26 00:00:00 4.82 1.7 3.69 13.81 0.006 59.82 33.61 0.012 0.04 0.057 2.24 0.017 7.25 0.006 32.17 2.173 ⩽LOQ 0.35 0.012 0.14 0.038 9.42 0.046 140.5 0.1 1.31 8.57
P33 3.218 45.74 319 2011-10-10 00:00:00 0.25 1.85 3.94 13.44 0.009 56.69 68.38 0.005 0.08 0.056 1.41 0.005 1.44 0.004 30.87 0.082 0.002 0.4 0.003 0.19 0.029 11.82 0.072 137.5 0.02 1.13 0.12
P33 3.218 45.74 319 2011-10-24 00:00:00 2.74 1.82 3.69 13.53 0.009 59.13 33.16 0.003 0.07 0.051 1.64 0.037 5.55 0.005 31.57 3.653 0.012 0.38 0.009 0.18 0.019 9.56 0.068 138.2 0.08 1.25 0.34
P33 3.218 45.74 319 2011-11-07 00:00:00 3.29 1.64 3.55 11.3 0.01 52.07 24.05 0.004 0.14 0.048 1.6 0.003 4.05 0.006 30.35 2.36 0.003 0.38 0.009 0.23 0.012 9.09 0.055 137.2 0.09 1.16 0.04
P33 3.218 45.74 319 2011-11-21 00:00:00 5.53 1.51 3.44 7.42 0.023 47.6 17.16 0.002 0.06 0.057 2.26 0.001 3.47 0.004 29.74 0.258 0.002 0.39 0.009 0.1 0.012 7.64 0.061 120.8 0.09 1.14 0.13
P33 3.218 45.74 319 2011-12-05 00:00:00 4.95 1.38 3.23 6.67 0.007 39.85 13.74 0.002 0.06 0.052 1.45 ⩽LOQ 5.03 0.004 27.37 0.614 ⩽LOQ 0.36 0.008 0.15 0.037 7.01 0.051 113.7 0.09 1.04 2.37
P33 3.218 45.74 319 2011-12-19 00:00:00 6.35 1.22 3.05 6.15 0.009 34.74 17.57 0.004 0.11 0.05 1.59 ⩽LOQ 7.73 0.004 25.64 0.69 0.001 0.35 0.01 0.2 0.064 6.14 0.033 108.3 0.08 0.92 3.88
P33 3.218 45.74 319 2012-01-03 00:00:00 6.98 1.36 3 5.75 0.009 29.55 2.83 0.002 0.12 0.057 1.61 0.002 7.83 0.005 23.79 0.902 ⩽LOQ 0.37 0.01 0.27 0.019 6.09 0.054 101 0.08 0.92 1.45
P33 3.218 45.74 319 2012-01-16 00:00:00 0.77 1.29 2.87 4.91 0.007 23.71 ⩽LOQ ⩽LOQ 0.04 0.044 1.35 ⩽LOQ 0.67 0.002 22.23 0.655 ⩽LOQ 0.27 0.003 0.21 0.007 5.42 0.055 90.9 0.03 0.7 1.45
P33 3.218 45.74 319 2012-01-30 00:00:00 8.85 1.35 2.88 5.17 0.008 23.88 11.13 ⩽LOQ 0.09 0.048 1.62 0.01 4.46 0.005 22.24 0.274 0.005 0.36 0.009 0.2 0.041 5.51 0.047 96.1 0.08 0.85 0.63
P33 3.218 45.74 319 2012-02-13 00:00:00 5.75 1.18 2.85 5.36 0.006 19.11 14.16 0.001 0.13 0.048 1.4 0.07 6.21 0.005 19.32 0.809 0.005 0.33 0.009 0.36 0.084 5.25 0.043 99.4 0.08 0.76 0.25
P33 3.218 45.74 319 2012-02-27 00:00:00 3.92 0.94 2.2 5.6 0.01 25.53 17.04 0.004 0.09 0.045 1.78 0.01 8.38 0.007 26.04 2.601 0.003 0.28 0.008 0.1 0.029 4.9 0.055 107.9 0.09 0.67 1.66
P33 3.218 45.74 319 2012-03-12 00:00:00 2.71 0.98 2.31 6 0.001 22.36 5.68 0.001 0.01 0.04 1.37 0.102 3.85 0.005 19.72 0.866 0.002 0.28 0.008 0.3 0.016 5 0.054 113 0.09 0.59 0.65
P33 3.218 45.74 319 2012-03-26 00:00:00 3.84 1.05 2.46 5.88 0.008 25.49 5.78 ⩽LOQ 0.01 0.049 2.34 0.015 3.45 0.004 21.2 0.501 ⩽LOQ 0.29 0.008 0.42 0.015 5.08 0.068 116.9 0.1 0.66 0.4
P33 3.218 45.74 319 2012-04-10 00:00:00 3.67 1 2.37 6.11 ⩽LOQ 24.71 5.22 0.001 0.08 0.046 1.79 0.009 8.83 0.003 21.6 0.924 0.001 0.28 0.006 0.17 0.069 4.97 0.052 114.1 0.11 0.64 3.29
P33 3.218 45.74 319 2012-04-23 00:00:00 4.01 1.08 2.65 7.49 ⩽LOQ 31.07 3.04 0.002 0.07 0.05 2.15 ⩽LOQ 8.74 0.005 19.48 0.577 ⩽LOQ 0.25 0.009 0.2 0.015 5.19 0.071 114.2 0.1 0.63 3.01
P33 3.218 45.74 319 2012-05-09 00:00:00 6.28 1.2 2.93 6.06 0.01 27.66 4.44 0.003 0.26 0.049 1.54 0.023 3.76 0.004 18.72 0.121 0.001 0.34 0.012 0.1 0.006 4.64 0.053 86.3 0.07 0.77 0.11
P33 3.218 45.74 319 2012-05-21 00:00:00 8.57 1.17 3.01 6.53 0.007 34.02 3.93 ⩽LOQ 0.08 0.047 1.66 ⩽LOQ 6.84 0.004 23.5 0.377 ⩽LOQ 0.24 0.011 0.27 0.013 4.89 0.049 89.2 0.07 0.82 1.95
P33 3.218 45.74 319 2012-06-04 00:00:00 7 1.14 3.25 9.4 0.003 29.81 8.83 0.001 0.09 0.054 1.69 ⩽LOQ 4.64 0.004 21.71 0.153 ⩽LOQ 0.22 0.011 0.24 0.006 5.27 0.062 96.3 0.07 0.9 0.31
P33 3.218 45.74 319 2012-06-18 00:00:00 5.84 1.32 3.39 7.97 0.002 30.56 21.84 ⩽LOQ 0.06 0.05 1.89 0.009 6.47 0.006 22.49 0.532 ⩽LOQ 0.25 0.012 ⩽LOQ ⩽LOQ 5.61 0.052 104.4 0.08 0.94 4.95
P33 3.218 45.74 319 2012-07-02 00:00:00 6.19 1.43 3.29 8.7 ⩽LOQ 31.96 8.62 ⩽LOQ 0.05 0.043 1.83 ⩽LOQ 10.54 0.005 22.77 0.279 0.001 0.25 0.014 0.27 0.271 6.15 0.058 104.6 0.08 0.9 0.32
P33 3.218 45.74 319 2012-07-16 00:00:00 4.54 1.43 3.33 9.38 ⩽LOQ 31.71 12.86 ⩽LOQ 0.05 0.047 1.7 ⩽LOQ 6.4 0.004 22.02 3.471 0.003 0.25 0.012 0.34 0.03 6.66 0.043 115.9 0.08 0.94 1.82
P33 3.218 45.74 319 2012-07-30 00:00:00 3.57 1.47 3.43 10.68 0.005 47.61 29.02 0.001 0.01 0.048 1.5 0.012 7.73 0.008 31.15 0.857 ⩽LOQ 0.25 0.012 0.14 0.014 7.35 0.047 126.1 0.09 1.05 0.3
P33 3.218 45.74 319 2012-08-13 00:00:00 5.76 1.4 3.5 11.54 0.01 44.26 23.36 0.003 0.03 0.044 1.39 0.014 7.43 0.006 25.06 2.7 0.002 0.26 0.013 ⩽LOQ 0.014 7.79 0.063 133.3 0.09 0.99 0.58
P33 3.218 45.74 319 2012-08-27 00:00:00 4.42 1.75 3.76 12.44 0.004 54.95 24.05 ⩽LOQ 0.03 0.05 1.68 0.008 6.6 0.006 29.13 3.509 0.001 0.3 0.013 0.18 0.011 8.53 0.033 131.7 0.08 1.22 1.55
P33 3.218 45.74 319 2012-09-10 00:00:00 7.13 1.89 4.11 12.18 0.003 45.78 20.74 ⩽LOQ 0.04 0.043 2 ⩽LOQ 13.65 0.009 24.21 2.16 ⩽LOQ 0.33 0.013 0.48 0.02 8.6 0.066 119.7 0.07 1.3 0.39
P33 3.218 45.74 319 2012-09-24 00:00:00 6.03 1.79 3.74 12.23 0.004 50.61 26.23 0.005 0.05 0.037 1.95 ⩽LOQ 5.31 0.006 30.44 0.303 ⩽LOQ 0.31 0.01 0.2 0.03 8.85 0.028 124.3 0.07 1.33 1.13
P33 3.218 45.74 319 2012-10-08 00:00:00 3.97 1.67 3.41 12.36 0.001 53.59 19.5 0.003 0.05 0.034 1.23 ⩽LOQ 7.57 0.006 32.33 2.643 0.003 0.31 0.011 0.06 0.029 8.94 0.033 131 0.07 1.25 0.24
P33 3.218 45.74 319 2012-10-22 00:00:00 4.07 1.48 3.39 11.78 0.008 49.39 20.66 0.002 0.08 0.035 1.17 0.023 4.81 0.005 31.54 1.987 ⩽LOQ 0.29 0.009 0.06 0.014 8.16 0.041 125.1 0.07 1.17 ⩽LOQ
P33 3.218 45.74 319 2012-11-05 00:00:00 4.38 1.52 3.35 11.23 ⩽LOQ 57.08 22.27 ⩽LOQ 0.05 0.036 1.13 0.01 5.84 0.006 32.95 2.661 0.005 0.33 0.01 0.08 0.007 8.12 0.028 128.3 0.08 1.13 0.36
P33 3.218 45.74 319 2013-01-07 00:00:00 7.34796858872336 1.16019577007171 2.86329716636231 5.88262711029558 0.00733010714180918 30.3438795068799 18.4163388593065 0.00131289882520015 0.0965239547216235 0.037490455322976 1.06471659182176 ⩽LOQ 3.97037170453637 0.0038323652166559 22.3806676271252 0.0662658893112887 0.00226037736188033 0.318741341547078 0.00776688612028517 ⩽LOQ 0.0128930963919179 6.1232488911854 0.0267741648691778 105.556979783818 0.0833145687728073 0.88145545081009 0.444818455238592
P33 3.218 45.74 319 2013-02-04 00:00:00 9.97576054591868 1.23694735184678 2.73395865739428 5.18880634224782 0.00110314186269478 33.7701291466012 18.6651327919456 ⩽LOQ 0.0891249667052757 0.0340293208103135 1.0680052204004 0.00710447789157509 6.27839358400895 0.00384194282954327 24.233292001856 0.205030198352163 0.00256686916464861 0.319364291325093 0.00994398176124533 0.135639757298426 0.0504264690202382 5.66538598859521 0.0422377530528147 98.746484676287 0.0729486632969742 0.920606445204837 1.84256275986054
P33 3.218 45.74 319 2013-03-11 00:00:00 8.8366074902201 1.05462522450473 2.3718481645136 4.75696483316721 0.00345227735698912 22.9172801202791 12.5945518702089 0.00794921878359322 0.0952639516970617 0.0356820437619157 0.9884522500293 0.0402787925262412 6.41776750323668 0.00392913544215636 18.5053149497462 0.328476255351506 0.00469482411024837 0.304288590044044 0.0106555414915942 0.141867542086757 0.120547438035489 4.3587339678692 0.0316101691629714 90.266222039753 0.0620551957785183 0.646012610430718 1.08838227267169
P33 3.218 45.74 319 2013-04-08 00:00:00 8.29999621540623 1.04293408122251 2.43881143952505 4.90791656058891 0.00491220256121721 22.9502504743114 12.1922937543854 0.00133265933599482 0.0643132385186103 0.0364450899080398 1.2743889577575 0.0142225212219276 3.75151772433773 0.00399179482532734 16.5163502846755 0.097715649973513 0.000556321891906076 0.256684251833097 0.0102265765566861 0.121516982174515 0.0177267830799056 3.83906378899243 0.0283406566817319 79.5144775035585 0.0451670595693429 0.54332516016037 0.285077659720004
P33 3.218 45.74 319 2013-05-06 22:06:06 25.8220197224457 1.11552500977509 2.82971137825759 6.16914251074868 0.00883826474365525 23.2571890154902 1.12095897207628 0.00220537590537874 0.0863166980159427 0.0499340169992804 1.92738110781116 0.00630349838950051 8.26724332196076 0.00563461542969013 22.4170574339242 0.12518819418657 ⩽LOQ 0.195028033026 0.0180684256905428 0.307892526017446 0.0273486412199859 4.70035738184749 0.0181911620546439 79.6657472552496 0.0523784715250952 0.800578704467234 0.387511510494982
P33 3.218 45.74 319 2013-06-03 00:00:00 15.5151927734065 1.24661759754276 3.26916100796599 6.91717179809174 0.0278508165191842 27.695373143533 4.16819057580212 0.00310849669515079 0.0910281640654928 0.0553974368759749 2.9564464089541 0.0035298057019796 6.4384582341509 0.00646294249650151 22.5428450507484 0.205409719084173 0.00360773338757005 0.221334974685238 0.0184470274006852 0.339852655407742 0.0341571200445816 5.16447076908837 0.0673782655955447 92.6168732812022 0.0668342751253313 0.861720046439714 0.894834124752403
P33 3.218 45.74 319 2013-07-01 00:00:00 14.2218480067195 1.24752413530541 2.80137336593335 7.07637935859443 0.00039096211411541 22.7571766759365 11.1662696931068 ⩽LOQ 0.058308657606576 0.0406857197457344 0.97386415031587 0.00760525334529182 8.60779998508148 0.0049249764451598 21.4207212314036 0.330197442958905 ⩽LOQ 0.174734257391775 0.0144403587402119 0.214802011713815 0.0327484357638998 5.11945573744689 0.0531791094828439 97.5514615095452 0.0639057632832551 0.888741927412197 1.31810889693291
P33 3.218 45.74 319 2013-07-29 00:00:00 5.8436155865254 1.24383903289897 2.92940247362118 8.96690732730604 0.00750755160101494 32.2151581324649 21.923930573389 0.00527773454405472 0.0757802720260564 0.039380625587291 1.15865407648778 0.034485696193287 10.1066166435515 0.00403760120054997 25.4625438967938 0.722679542688647 0.00693494006562205 0.0355948685324166 0.0112117070004628 0.507112509125922 0.0280813997029822 6.05186455680163 0.0317391013910904 117.322678647652 0.0761194530897101 0.856344190691859 1.60466795300003
P33 3.218 45.74 319 2013-09-02 00:00:00 3.64435057861892 1.38452442112782 2.96017529891189 11.9555357621704 0.00972023679496598 40.3106973695907 27.9411551828411 ⩽LOQ 0.0411018114652059 0.0395581659759217 1.59745359186584 0.0371542475898176 10.7541981294062 0.00603577393790562 29.6193099662631 0.571336696570693 0.0151357185141408 0.26192249165114 0.0118420565501809 0.163580924035854 0.0720861495289033 8.02553070223177 0.0540480387926497 140.461123236599 0.103883773611929 0.9182277041335 0.301136329958564
P33 3.218 45.74 319 2013-10-07 00:00:00 3.80198183618991 1.39825943820942 3.16881690494805 14.0653716995906 0.00892429102113366 46.9428836842054 31.0227849282196 0.00573786337240145 0.0471330306428302 0.0361267249626519 1.29605411627454 0.0117330109334492 2.85719646639388 0.0055293312118174 33.9081564970571 0.156265464055109 0.00503351348463696 0.242881179598975 0.0122018159675021 0.190385273080163 0.0244577952082826 8.94753775082748 0.04334438274584 155.005676877374 0.0868355535535935 1.05364429406968 0.655445545109281
P33 3.218 45.74 319 2013-11-04 00:00:00 4.16880647538254 1.41790788465846 3.18389164574342 13.270464629201 0.0144515728981836 41.9537970685996 20.3991658796958 0.00314429203812079 ⩽LOQ 0.0367161790657231 0.0210816369086492 0.000550810334415731 3.2528203824494 0.0052036433508033 30.0925582115298 0.177180168727036 ⩽LOQ 0.260574407249902 0.0094561005839703 0.144375785548125 0.00887499473472648 8.78780214998103 0.056910035126036 137.601554842318 0.0867850300141238 1.00766166125857 0.722992154360724
P33 3.218 45.74 319 2013-12-02 15:59:19 1.93956798081452 0.326167681281956 4.62498259674675 35.9398252876761 0.000805959800077135 89.6326896024495 152.114064928228 0.00832431495955225 0.237957303553033 0.0522378739204415 0.613839188882201 ⩽LOQ 0.579170513955751 0.00352945228751529 137.786428456402 0.0867203220484202 ⩽LOQ 2.15248480959335 0.0142397938017583 0.612273753789866 0.240884513543091 31.6476928416404 1.16358289561132 1021.36226868419 9.17776061263105 1.80432256468776 0.433681854173596
P33 3.218 45.74 319 2014-01-13 00:00:00 4.60840954759481 1.15899968146369 2.50239389983035 5.61938196520131 0.0102668549333565 29.1518862046542 15.4508080649896 0.002986167981946 0.0676266407658705 0.0416999591478759 1.01993754375694 0.197867302361667 5.25430445494541 0.00342585867292754 24.3008118049621 0.191411934237578 0.0103306793595919 0.378737700281119 0.00974428968888332 0.162591556144974 0.0198038971772631 5.99658809981365 0.0520136617022746 109.628261792419 0.101581405093923 0.83369028967421 0.216849969715044
P33 3.218 45.74 319 2014-02-12 13:37:07 5.33528612917383 1.05853494850647 2.44486050627645 5.33855211202119 ⩽LOQ 21.4670170695947 14.2258549066908 0.000595168520116289 0.0753077238879741 0.0390392117282705 1.20550279796942 0.0301680155823706 3.18122953981261 0.0029095051431397 17.7544639972011 0.118424287654627 0.00525187517751358 0.310914408851825 0.0100321361848698 0.136101741963801 0.0122786026489771 4.97129063833722 0.0416078308335405 101.143279829584 0.0744255969843806 0.689636684314122 0.376045022176449
P33 3.218 45.74 319 2014-03-10 00:00:00 6.2505392068147 1.09051505931129 2.39084047617477 5.07188804904521 0.00574677929489649 23.1729328374917 19.613304251066 ⩽LOQ 0.0852319591920673 0.0386778908742828 1.12423459207316 0.0223493143218576 3.09487594153759 0.00305548591126395 21.0099653989887 0.0888459162543855 0.00451975874759654 0.381074636473054 0.0089882544796124 0.106475284022927 0.015535442183718 4.93462520027552 0.0442524302937646 100.964814287359 0.0769013194839067 0.712969355780536 0.440152491044288
P33 3.218 45.74 319 2014-04-07 00:00:00 4.33648183205288 0.949314039292956 2.4509600395846 5.05367327155949 0.00515457816298144 20.7564505817429 15.7537524956311 0.00169827966754328 0.0651199425663596 0.0308091561506912 1.37279111035813 0.0564771382062611 2.17496381266515 0.00422728499027457 21.2327049156102 0.0560554962914283 0.001359792307544 0.282089888463114 0.00862971486778411 0.268384629299854 0.0375392634293215 4.45769097228991 0.0338484388758622 95.8885110403693 0.0661508952492178 0.70378040791041 1.38942523822022
P33 3.218 45.74 319 2014-05-12 00:00:00 5.5998090294927 1.10697211184956 2.92471358774835 7.90706237183304 0.0215553122618094 32.8106335796682 18.7709594509494 0.000393649383006142 0.0671833077904521 0.0316365990641873 1.1952351234234 0.00318180120024686 3.94329947743228 0.00449652007178639 29.2385598509157 0.384562992900574 0.00614031994838971 0.244027462700709 0.00956375419691591 0.182480934501074 0.0117143374298024 5.26082968332742 0.0372530175639137 107.629666807315 0.0792894532085199 0.728014813732724 0.233683075350014
P33 3.218 45.74 319 2014-06-02 00:00:00 5.63173626629928 1.08609527227364 2.75450777244994 7.69457000375514 0.0066939092569517 26.8177501202439 19.0363442020723 0.00222445218697396 0.00295410273404867 0.0288029459247177 0.813450896139027 0.0505683698227597 7.32811437887548 0.00454696252148846 25.1422782436302 0.756837590230854 0.00246245266736243 0.247586485354851 0.00888010609237763 0.0715215614506066 0.0165147953130786 5.52242954809405 0.0469061202800552 113.586276420457 0.0835794971218332 0.729751146431784 0.274745518450626
P33 3.218 45.74 319 2014-07-07 00:00:00 5.07275400597864 1.24754015526173 3.02275766139266 11.0940488232033 0.0113854148787731 53.2939578912887 34.7379088811551 0.00358191447540704 0.0159563496281675 0.0380308214398994 1.24043715667926 ⩽LOQ 4.40834143216834 0.00470182892915525 29.0467540421076 0.512863763906105 0.000467957175958771 0.242440324008332 0.0111607175268888 0.0756597563337363 0.0207986431974417 7.51536138419104 0.0444455349080251 147.009782724616 0.0931860111478442 0.925978305064455 0.261174592632627
P33 3.218 45.74 319 2014-07-28 00:00:00 6.30367028863435 1.42494287530692 3.41285034959052 10.7758122928533 0.0133729495547969 58.0793414963176 28.0634203153318 0.00288634279988357 0.0280411902876687 0.0462193262895134 1.71346083691446 ⩽LOQ 5.1791315313153 0.00567880743171835 31.2637281097239 0.144488071599256 0.000776003566443668 0.296876841291041 0.0105672959760364 0.320463216225529 0.0204983032350355 7.69142436389857 0.0481674962634221 129.252006009735 0.0859180367771185 1.11780399581888 0.589129230255536
P33 3.218 45.74 319 2014-09-01 00:00:00 3.37428324130104 1.42559293429181 3.6881458064861 11.1311097239727 0.00912307504266441 43.4338319473627 30.289841287927 0.00356261737554024 0.00122121598904691 0.0401090622764058 1.83199052388913 0.00871317925576576 3.19567936458662 0.00521772844561481 31.9285575021273 0.245357672182154 0.00191736369421396 0.28805328100701 0.01090435949353 0.178836182428417 0.0157985460086905 7.32110544805541 0.0499538916110301 123.298100917967 0.0929922816590729 1.28125985923478 ⩽LOQ
P33 3.218 45.74 319 2014-10-06 00:00:00 2.75935681368016 1.50135127945839 3.45215022854607 12.6552074149492 0.00109674968788166 49.6585500086081 32.7662667992799 0.00159535749720845 ⩽LOQ 0.0342068981156181 1.71517746460609 0.0125585995042492 9.41681822761733 0.0051570625628443 35.395146299633 0.828312652396574 0.00358312978778521 0.304226728432644 0.0108173934712713 0.183790723521523 0.00628212222868414 8.76232691363062 0.0501767054417663 141.054158234677 0.0919881211005722 1.12482082816303 0.181262696633313
P33 3.218 45.74 319 2014-11-03 00:00:00 3.38604083296835 1.52944857306105 3.31917270665505 ⩽LOQ 0.00556824905038567 35.6960152342101 20.3759057655244 0.00165281269859911 0.0287312002991604 0.0352344321122833 1.5841382184392 0.00954569822941479 6.2389524562588 ⩽LOQ 24.2552939508645 0.251138087383296 ⩽LOQ 0.338569752865169 ⩽LOQ 0.249056263939872 ⩽LOQ 7.68489835530515 0.0519883381215437 125.17510793191 ⩽LOQ 1.11060117716904 0.993826400922318
P33 3.218 45.74 319 2014-12-01 00:00:00 3.48380924331631 1.37032957176943 2.9421796918843 ⩽LOQ 0.00603287114548132 31.4864908090375 17.6720734397662 0.00190417050831041 0.0530892427143388 0.038131024084771 1.40029653405264 0.00212758390963999 2.79000320436784 ⩽LOQ 26.1142241076451 0.195804298267569 ⩽LOQ 0.322687623614761 ⩽LOQ 0.161813976912624 ⩽LOQ 7.32104553814856 0.0563941294877762 127.733109022583 ⩽LOQ 0.979124743433734 0.30897297810297
P33 3.218 45.74 319 2015-01-12 14:53:00 5.5 1.18 2.66 6.35 0.01 26.38 16.09 ⩽LOQ 0.04 0.04 1.8 0.01 4.14 ⩽LOQ 27.07 3.75 ⩽LOQ 0.31 0.01 0.19 0.02 5.91 0.04 112 0.11 0.85 0.96
P33 3.218 45.74 319 2015-01-20 08:46:00 3.99 1.17 2.62 6.45 ⩽LOQ 20.2 15.54 ⩽LOQ 0.03 0.04 1.6 ⩽LOQ 2.2 ⩽LOQ 25.3 0.06 ⩽LOQ 0.3 0.01 0.16 0.06 5.64 0.03 109.5 0.1 0.68 2.49
P33 3.218 45.74 319 2015-02-02 14:30:00 4.3 1.11 2.6 6.5 ⩽LOQ 26.7 16.47 ⩽LOQ 0.05 0.03 1.1 ⩽LOQ 3.7 ⩽LOQ 28.5 0.2 ⩽LOQ 0.27 0.01 0.08 ⩽LOQ 5.6 0.03 109.76 0.1 0.78 0.01
P33 3.218 45.74 319 2015-03-02 14:25:00 3 1.01 2.33 6.3 ⩽LOQ 26.99 19.49 ⩽LOQ 0.05 0.04 1.02 0.02 3.34 ⩽LOQ 24.8 0.14 ⩽LOQ 0.28 0.01 0.13 0.02 5.81 0.04 123.01 0.11 0.66 0.2
P33 3.218 45.74 319 2015-03-30 14:33:00 3.54 1.03 2.22 5.8 ⩽LOQ 23.08 14.59 ⩽LOQ 0.04 0.04 1.45 ⩽LOQ 3.43 ⩽LOQ 22.88 0.06 ⩽LOQ 0.28 0.01 0.15 0.11 5.34 0.04 109.08 0.1 0.69 0.38
P33 3.218 45.74 319 2015-05-04 14:29:00 4.64062 1.00857 2.45603 5.92532 0.00204832 22.2875 14.7502 0.00230049 0.0825677 0.0389924 1.09473 0.027838 6.69015 0.00458104 23.0618 0.288428 0.00181605 0.295976 0.0085632 0.0960515 0.0240025 4.893 0.0447874 111.371 0.105759 0.7026 1.33637
P33 3.218 45.74 319 2015-06-01 14:25:00 2.33598 1.0825 2.58696 7.55297 0.00729525 25.7995 22.6959 0.00221984 0.0185002 0.0367866 4.56707 0.00704626 2.4896 0.00302793 22.5337 0.430247 0.0036195 0.284521 0.00718823 0.0654178 0.0171085 5.37905 0.0419299 116.71 0.0953007 0.715877 0.418745
P33 3.218 45.74 319 2015-07-06 14:34:00 3.74958 1.29621 2.90393 11.5304 0.00875398 43.8661 33.317 0.00373251 0.0144041 0.0392557 1.42151 ⩽LOQ 7.42867 0.00536096 29.4713 0.411049 0.000706051 0.267709 0.0110697 0.062869 0.0181637 ⩽LOQ 0.037392 137.288 0.0865903 0.773228 1.06526
P33 3.218 45.74 319 2015-07-27 14:24:00 4.06939 1.58261 3.43255 11.2378 0.0120339 55.0458 36.121 0.00410972 0.0108285 0.0359794 1.522 0.0124513 17.5104 0.00652775 33.2732 0.495508 0.00219301 0.355151 0.0114652 0.0657917 0.00662187 92.1584 0.0422664 126.636 0.0639853 1.19922 0.52526
P33 3.218 45.74 319 2015-08-31 14:52:00 4.28156 1.5944 3.41877 12.3305 0.0133727 68.7205 36.2166 0.0024909 0.00570328 0.036869 1.89456 0.0209106 9.06014 0.00528493 35.2819 0.411439 0.0029214 0.360158 0.0106191 0.140142 0.0182482 0.846377 0.0504996 129.363 0.0658338 1.33802 0.82649
P33 3.218 45.74 319 2015-10-05 15:03:00 3.79151 1.51965 3.28732 11.7524 0.00316245 47.4565 26.4279 0.0021364 0.012461 0.0365408 2.55229 ⩽LOQ 4.09069 0.00444524 27.7375 0.48525 0.0033009 0.321423 0.0102893 0.117086 0.0368994 1.17779 0.0459373 123.562 0.0683689 1.27538 1.35281
P33 3.218 45.74 319 2015-11-02 14:46:00 3.11066 1.30859 2.81541 9.56395 0.00426412 46.6211 29.6807 0.00107749 0.0407802 0.0325046 1.15732 0.0109629 1.68866 0.00293051 28.425 ⩽LOQ 0.00318811 0.294452 0.00774877 0.0967526 ⩽LOQ 1.57508 0.0319003 140.386 0.10237 0.943904 0.0227511
P33 3.218 45.74 319 2015-12-07 14:45:00 2.69415 1.21063 2.63345 8.22977 0.0037104 41.6995 26.9008 0.0015706 0.048928 0.0323983 0.85431 0.0176775 6.94644 0.00418805 26.6951 0.316055 0.00366505 0.311665 0.00664033 0.123731 0.0056575 1.2672 0.0272777 141.32 0.134515 0.959939 0.54796
P33 3.218 45.74 319 2016-01-04 00:00:00 3.12327 1.15948 2.49658 7.6074 0.00393007 38.0977 20.7915 0.00209056 0.0309222 0.642605 0.000118204 2.07477 0.00365205 29.9053 0.13313 0.312256 0.00728148 0.0939011 0.00608814 0.885011 0.027454 0.150648 0.753474 140.599 0.150648 0.753474 0.18676
P33 3.218 45.74 319 2016-02-01 00:00:00 4.39515 1.05963 2.25888 6.06121 0.00305988 29.5679 13.029 0.00161026 0.0424949 1.66995 ⩽LOQ 1.97078 0.00470693 25.4392 0.0593384 0.312603 0.00674136 0.137157 0.0299061 3.73606 0.0397466 0.100496 0.686463 110.469 0.100496 0.686463 0.647519
P33 3.218 45.74 319 2016-03-07 12:10:00 9.41117 1.10889 2.62633 5.04577 0.00919082 27.6772 8.85484 0.0020231 0.0463772 1.41951 0.0303282 3.70648 0.0053197 19.8962 0.086811 0.302628 0.0105544 ⩽LOQ 0.0121191 4.51292 0.0785953 0.082852 0.731138 93.5533 0.082852 0.731138 0.652665
P33 3.218 45.74 319 2016-04-04 14:03:00 5.17621 0.350416 2.36218 41.8486 0.00638122 24.1807 162.222 0.00740006 0.0611996 1.25565 0.00590526 1.9013 0.00545848 142.875 0.0652017 2.2964 0.0145427 0.126809 0.00965643 35.1072 0.829776 10.5489 0.676362 1125.14 10.5489 0.676362 4.53439
P33 3.218 45.74 319 2016-05-09 12:00:00 5.88878 1.14019 2.77237 6.59616 0.011392 30.9629 18.8034 0.00185199 0.0325473 2.56272 ⩽LOQ 3.71687 0.0045555 32.314 0.19797 0.234035 0.0121305 0.0763398 ⩽LOQ 5.20406 0.0450075 0.0749242 0.774558 97.8168 0.0749242 0.774558 ⩽LOQ
P33 3.218 45.74 319 2016-06-06 12:30:00 4.4869 1.30188 2.75662 8.60377 0.00461165 29.8006 15.3984 ⩽LOQ 0.0362302 1.01455 0.00794016 2.21164 0.00447058 30.8788 0.0822239 0.245472 0.0148372 0.0385658 0.00667896 6.06658 0.0772359 0.0881532 0.754105 109.062 0.0881532 0.754105 ⩽LOQ
P33 3.218 45.74 319 2016-07-04 00:00:00 3.47445 ⩽LOQ 2.93364 1.21271 0.00048101 27.7163 21.4305 ⩽LOQ 0.0463478 1.6432 ⩽LOQ 2.94249 0.0128656 23.4278 0.0994698 0.202108 8.5286 0.0775941 0.00533141 7.25168 0.0759451 0.0137776 0.861177 111.203 0.0137776 0.861177 ⩽LOQ
P33 3.218 45.74 319 2016-07-25 00:00:00 3.69991 1.15516 2.77343 8.96574 0.00980949 30.8382 28.6536 0.00282675 0.0337707 1.55323 ⩽LOQ 1.62941 0.00530357 28.6044 0.0929429 0.200089 0.00949298 0.0977423 0.00602678 8.16062 0.0557456 0.0979629 0.898313 118.477 0.0979629 0.898313 ⩽LOQ
P33 3.218 45.74 319 2016-08-29 12:15:00 2.61016 1.25835 2.76509 11.0984 0.00855804 36.451 35.0236 0.00220175 0.0388908 0.886612 0.00119752 1.39843 0.0034689 27.014 0.141909 0.230171 0.0124502 0.0898829 ⩽LOQ 8.29206 0.0482208 0.100437 0.875108 134.877 0.100437 0.875108 ⩽LOQ
P33 3.218 45.74 319 2016-10-03 00:00:00 3.28826 1.55245 3.29486 12.019 0.00552863 54.0942 31.8037 0.00270072 0.0282884 1.51273 0.00333817 3.79406 0.00535799 31.1366 0.51078 0.304237 0.011137 0.0631233 0.00860944 10.2312 0.0405155 0.0686191 1.16505 129.484 0.0686191 1.16505 ⩽LOQ
P33 3.218 45.74 319 2016-11-07 00:00:00 3.33988 1.3271 2.96796 10.6651 0.0124428 49.4667 24.0054 0.00191222 0.0326049 1.30802 0.000125806 2.90689 0.00406971 29.3158 0.172793 0.341318 0.00908766 0.0522013 0.00871031 7.82481 0.0371445 0.0682713 1.00946 123.245 0.0682713 1.00946 ⩽LOQ
P33 3.218 45.74 319 2016-12-05 00:00:00 3.97181 1.2785 2.72658 7.70227 0.0161997 37.4802 18.6815 0.000284321 0.0416665 2.12188 ⩽LOQ 1.93036 0.00534431 33.039 0.0770789 0.280882 0.0098182 0.130523 0.00711848 7.31648 0.0741983 0.113404 0.883866 128.457 0.113404 0.883866 0.257293
P33 3.218 45.74 319 2017-01-09 00:00:00 4.93561 1.08212 2.46469 6.4049 0.00322476 31.9832 16.0599 0.00252128 0.0413407 0.727925 0.00716938 1.6831 0.00509777 24.1959 0.0171669 0.305306 0.00938818 0.051102 ⩽LOQ 6.10855 0.0459162 0.107621 0.748184 120.186 0.107621 0.748184 0.0411462
P33 3.218 45.74 319 2017-02-06 12:15:00 2.75653 0.921492 2.11956 6.73811 0.00707007 35.0256 21.8903 0.00106677 0.0374183 1.338 ⩽LOQ 2.65717 0.0031079 25.7073 0.212704 0.256035 0.00734786 0.130934 0.00742797 5.67826 0.0603429 0.104967 0.616806 124.655 0.104967 0.616806 0.121413
P33 3.218 45.74 319 2017-03-06 12:00:00 4.47451 0.951971 2.2394 5.06598 0.0078802 33.329 19.9414 0.00195865 0.0354016 1.79759 0.0138659 2.3857 0.00549308 24.8808 0.0728632 0.253158 0.0105873 0.13615 0.000138273 4.56399 0.0455196 0.0749599 0.507838 93.089 0.0749599 0.507838 3.15263
P33 3.218 45.74 319 2017-04-03 12:15:00 5.54826 0.953188 2.36966 5.03575 ⩽LOQ 23.9268 14.3526 0.000963592 0.0270849 1.15964 ⩽LOQ 2.25738 0.00419092 21.3442 0.0795673 0.168372 0.0107514 0.100083 0.00365263 4.08784 0.0266284 0.0542215 0.630991 91.5598 0.0542215 0.630991 ⩽LOQ
P33 3.218 45.74 319 2017-05-09 12:30:00 4.15313 1.01167 3.06907 7.84955 0.0105648 41.6017 18.0242 0.00215402 0.0328659 1.39095 0.00150604 3.26229 0.00540052 25.8741 0.0499776 0.223442 0.0122878 0.00637553 0.00419445 5.13197 0.0387002 0.0631687 0.732059 103.075 0.0631687 0.732059 ⩽LOQ
P33 3.218 45.74 319 2017-06-06 12:15:00 4.05604 1.32883 2.58335 9.06419 0.00731549 28.6219 30.2551 0.000991644 0.0299136 1.31165 0.000548081 1.66074 0.0059061 22.6004 0.0782564 0.254863 0.0143133 0.0910828 0.0151815 6.32164 0.025405 0.0764154 0.763148 111.445 0.0764154 0.763148 0.0412248
P33 3.218 45.74 319 2017-07-03 00:00:00 3.99276 1.51582 2.95911 12.2273 0.0147527 52.8576 36.6184 0.00183564 0.0370706 2.23849 0.00519621 2.20189 0.00610233 30.941 0.182516 0.281326 0.0110785 0.160162 0.0122211 8.21448 0.0432141 0.0755261 1.02203 127.962 0.0755261 1.02203 0.309369
P33 3.218 45.74 319 2017-07-24 12:15:00 3.51358 1.63245 3.28662 12.8366 0.0103961 63.3849 36.5749 0.00247266 0.0359458 2.50549 0.0206025 2.76187 0.00933026 34.6905 ⩽LOQ 0.295955 0.0123966 0.0748978 0.0414046 0.526165 0.0384906 0.0774506 1.21686 129.742 0.0774506 1.21686 0.340993
P33 3.218 45.74 319 2017-09-04 00:00:00 3.1491 1.68697 3.06827 12.73 0.0264901 48.8716 33.3729 0.00638438 0.0314165 1.51709 0.00273229 1.41228 0.00927691 37.2453 0.234524 0.358832 0.012179 0.1301 0.0282265 8.91307 0.0475827 0.0706786 1.15363 122.693 0.0706786 1.15363 0.279995
P33 3.218 45.74 319 2017-10-02 12:00:00 3.3216 1.58797 3.17676 11.8132 0.00988598 54.7011 28.9707 0.00018167 0.0265971 2.02837 0.00196881 2.043 0.00666331 37.7115 0.388706 0.369339 0.0092948 0.0863419 0.00139575 8.71756 0.0331396 0.0634908 1.1709 122.26 0.0634908 1.1709 ⩽LOQ
P33 3.218 45.74 319 2017-11-06 12:30:00 2.70917 1.37866 2.87203 9.81396 0.00259952 50.8202 25.7024 ⩽LOQ 0.0221678 1.28694 ⩽LOQ 1.16013 0.00497202 31.0066 0.117354 0.310972 0.00593457 0.0996526 ⩽LOQ 7.8387 0.026862 0.0963554 0.982101 130.799 0.0963554 0.982101 0.117603
P33 3.218 45.74 319 2017-12-04 13:00:00 2.95501 1.34034 2.70013 8.67941 0.0367009 44.2928 21.2513 0.00686746 0.030858 1.18249 0.163928 1.34943 0.0100316 30.4398 0.0526669 0.346321 0.00938699 0.074171 0.0193793 7.70132 0.0421969 0.141064 0.9496 137.499 0.141064 0.9496 ⩽LOQ
P33 3.218 45.74 319 2018-01-08 12:00:00 4.03115 1.0922 2.26031 6.19964 0.0104053 37.2025 15.284 0.00179992 0.0325697 1.22737 0.00393305 1.84925 0.00554425 29.0679 0.0884653 0.342243 0.0094973 0.128978 0.0183074 5.58041 0.0288722 0.12025 0.691642 109.745 0.12025 0.691642 0.51381
P33 3.218 45.74 319 2018-02-05 13:00:00 10.7122 1.25047 2.37014 5.43027 0.0275293 28.7619 10.603 0.00709209 0.0390388 1.51476 ⩽LOQ 5.39833 0.013234 22.3211 0.247882 0.356355 0.0155369 0.132363 0.00420351 5.20365 0.0461457 0.102933 0.778254 89.3671 0.102933 0.778254 0.101782
P33 3.218 45.74 319 2018-03-05 13:00:00 6.56493 1.00399 2.34636 4.87925 ⩽LOQ 21.228 9.24321 ⩽LOQ 0.0360362 1.78088 ⩽LOQ 2.60281 0.000584971 18.8996 0.0516698 0.225055 0.00302025 0.162647 0.0170512 4.14961 ⩽LOQ 0.0614274 0.632928 85.144 0.0614274 0.632928 0.123078
P33 3.218 45.74 319 2018-04-09 13:00:00 ⩽LOQ 1.09119 2.38961 5.09497 0.0113959 22.0639 9.8096 0.000453751 0.0381385 1.77304 0.000488313 2.59798 0.00480724 19.6184 0.0224271 0.259167 0.012205 0.0688236 ⩽LOQ 4.37599 ⩽LOQ 0.0640054 0.71134 83.3201 0.0640054 0.71134 0.0721359
P33 3.218 45.74 319 2018-05-14 12:30:00 8.99158 1.04963 2.48878 5.50883 0.00992341 25.2064 16.1492 0.00191005 0.0314196 2.37631 0.0112888 5.95314 0.00595422 20.2094 1.0851 0.227889 0.0156149 0.114564 0.00428801 2.56371 0.106205 0.0561803 0.670882 81.5971 0.0561803 0.670882 0.108052
P33 3.218 45.74 319 2018-06-11 12:30:00 11.1578 1.33812 2.98353 7.10297 0.0122041 24.7249 12.8547 0.000463601 0.0478985 1.98074 0.044604 9.11974 0.00692349 26.3372 0.774786 0.238728 0.0188402 0.217981 0.0193464 5.30237 0.12492 0.0742193 0.851456 90.3838 0.0742193 0.851456 0.439253
P33 3.218 45.74 319 2018-07-02 12:00:00 6.77502 1.44106 2.75767 8.48315 0.00920074 24.976 23.26 0.00173353 0.0480741 2.6118 0.00207018 4.03208 0.0062905 21.768 0.155043 0.233983 0.0178232 0.0414608 0.0214853 5.8765 0.154653 0.0879675 0.893665 103.354 0.0879675 0.893665 0.254821
P33 3.218 45.74 319 2018-07-23 12:15:00 4.73565 1.59018 2.82338 8.06788 0.00323158 32.4852 22.9888 0.00264388 0.039032 3.04956 8.16448e-05 3.59558 0.00623397 20.4738 0.393672 0.230768 0.0119006 ⩽LOQ 0.0476476 5.46152 0.143061 0.0938173 0.796227 108.976 0.0938173 0.796227 ⩽LOQ
P33 3.218 45.74 319 2018-09-03 12:00:00 3.27013 1.62991 2.61116 10.0929 0.0312189 34.831 30.7381 0.00475037 0.0655653 2.4206 0.00146733 27.199 0.00856376 31.5998 17.2036 0.227719 0.0141584 ⩽LOQ 0.00566137 6.70405 0.10599 0.113569 0.673249 124.779 0.113569 0.673249 ⩽LOQ
P33 3.218 45.74 319 2018-11-08 11:00:00 4.53294 1.64942 2.60563 11.3101 0.000341026 43.2222 26.4974 ⩽LOQ 0.0301494 0.985893 ⩽LOQ 3.87191 0.00744319 26.6317 0.160247 0.276723 0.0138197 0.193655 0.17696 7.49367 0.0168769 0.0733083 0.843756 131.743 0.0733083 0.843756 1.04109
P33 3.218 45.74 319 2018-12-03 12:00:00 7.04254 1.70758 2.52773 6.89265 ⩽LOQ 31.919 14.8378 ⩽LOQ 0.0293858 1.2856 0.00926045 3.10577 0.00764798 20.886 0.116439 0.271123 0.0135732 0.115602 0.0365773 5.81972 0.0776067 0.0779058 0.836081 ⩽LOQ ⩽LOQ ⩽LOQ ⩽LOQ
P33 3.218 45.74 319 2019-01-07 12:00:00 8.68031 1.61232 2.91681 5.9197 ⩽LOQ 35.077 12.6598 ⩽LOQ 0.0261454 1.30979 0.00113109 4.14031 0.00429211 23.0333 1.53771 0.244624 0.00507387 0.136144 ⩽LOQ 6.00149 ⩽LOQ 0.147342 0.867972 103.926 0.147342 0.867972 ⩽LOQ
P33 3.218 45.74 319 2019-02-11 12:15:00 3.24158 1.58945 2.24831 6.59161 0.00270828 29.5333 19.7513 ⩽LOQ 0.0276933 ⩽LOQ 0.00484531 3.2205 0.00632302 23.7221 0.0905599 0.295458 0.00842332 0.0688404 ⩽LOQ 5.95013 ⩽LOQ 0.134912 0.663497 121.045 0.134912 0.663497 0.270602
P33 3.218 45.74 319 2019-03-04 12:00:00 4.09195 0.923846 2.42375 5.73018 0.00592 31.618 14.9868 0.00302635 0.040877 1.2258 0.03064 10.426 0.00422592 20.173 0.385553 0.249052 0.00735684 ⩽LOQ 0.00243402 5.14952 0.164508 0.141699 0.654459 114.477 0.141699 0.654459 ⩽LOQ
P33 3.218 45.74 319 2019-04-01 12:15:00 8.63945 1.00318 2.19694 4.87477 0.00285658 23.7182 11.0704 0.00252775 0.0301277 1.13476 0.0107705 3.72685 0.00324216 16.5776 0.0510811 0.259567 0.0111477 0.0984226 0.00493754 4.31348 0.010119 0.0977615 0.637252 87.6031 0.0977615 0.637252 0.607474
P33 3.218 45.74 319 2019-05-13 13:00:00 17.7185 1.12016 2.49578 6.32968 0.0085544 31.8032 13.9652 ⩽LOQ 0.022267 0.377374 ⩽LOQ 7.3195 0.00781421 18.3644 ⩽LOQ 0.237374 0.0155641 ⩽LOQ 0.0155829 5.23683 0.0683047 0.0517561 0.75245 89.392 0.0517561 0.75245 0.100984
P33 3.218 45.74 319 2019-06-03 12:00:00 11.3667 1.08514 2.58248 6.45857 0.00530065 28.95 22.3215 ⩽LOQ 0.037907 1.66569 ⩽LOQ 4.78312 0.00509504 20.7082 0.143975 0.215445 0.0118102 0.0579846 0.0118444 5.69906 0.124236 0.0619036 0.747653 97.4705 0.0619036 0.747653 0.300265
P33 3.218 45.74 319 2019-07-01 12:00:00 2.99557 1.01153 2.7864 8.18803 ⩽LOQ 39.8065 21.8835 ⩽LOQ ⩽LOQ 1.26806 ⩽LOQ 2.48285 ⩽LOQ 23.8249 ⩽LOQ ⩽LOQ 0.00176868 0.0865982 ⩽LOQ 6.77269 ⩽LOQ 0.037188 0.880504 102.847 0.037188 0.880504 ⩽LOQ
P33 3.218 45.74 319 2019-07-29 00:00:00 7.66719 1.30586 2.89476 10.727 0.007578 54.5435 41.4549 0.00326729 0.0571512 2.04878 0.00030595 31.0997 0.0090573 28.2693 7.23222 0.274401 0.0110136 0.049476 0.0242544 8.8933 0.0810749 0.0498336 1.20919 120.624 0.0498336 1.20919 0.861354
P33 3.218 45.74 319 2019-09-02 12:45:00 7.50039 1.51197 3.34171 10.1582 0.0127926 53.841 29.3642 0.00858227 0.0057758 1.78071 ⩽LOQ 7.08099 0.00472472 32.185 0.703625 0.363869 0.01444 0.128929 0.0262436 8.86389 0.0256871 0.0464485 1.16996 114.256 0.0464485 1.16996 0.956324
P33 3.218 45.74 319 2019-10-07 12:00:00 5.12302 1.22847 3.23345 8.91127 0.0305659 49.7237 28.3598 0.0044093 0.0276799 0.969632 0.0352378 5.59906 0.00757395 33.1438 0.902235 0.376787 0.0102514 0.18909 ⩽LOQ 8.18999 0.067094 0.0483054 1.09003 104.104 0.0483054 1.09003 ⩽LOQ
P33 3.218 45.74 319 2020-01-06 12:00:00 6.2 1.1 2.8 5.9 ⩽LOQ 37 15 ⩽LOQ 0.022 0.042 1.7 ⩽LOQ 3.9 ⩽LOQ 30 0.21 ⩽LOQ 0.31 0.011 0.073 ⩽LOQ 7.4 ⩽LOQ 120 0.078 0.89 ⩽LOQ
P33 3.218 45.74 319 2020-02-03 12:30:00 5.9 1.1 2.5 5.3 0.011 30 16 ⩽LOQ ⩽LOQ 0.032 0.3 ⩽LOQ 3.4 ⩽LOQ 23 ⩽LOQ ⩽LOQ 0.22 ⩽LOQ ⩽LOQ 0.13 6.3 0.062 62.3 0.086 0.33 0.21
P33 3.218 45.74 319 2020-03-09 12:15:00 6.6 0.88 2.4 5.1 0.024 29 15 ⩽LOQ ⩽LOQ 0.025 1.2 ⩽LOQ 8.4 ⩽LOQ 27 0.45 0.0023 0.26 ⩽LOQ ⩽LOQ 0.01 5.6 0.068 99.7 0.09 0.63 ⩽LOQ
P33 3.218 45.74 319 2020-06-08 12:30:00 6 0.82 2.2 5 ⩽LOQ 27 15 ⩽LOQ ⩽LOQ 0.053 0.87 ⩽LOQ 33 ⩽LOQ 26 11 ⩽LOQ 0.25 ⩽LOQ 0.081 ⩽LOQ 5.8 ⩽LOQ 117 0.11 0.65 ⩽LOQ
P33 3.218 45.74 319 2020-07-06 12:30:00 3.3 0.92 2.4 8.1 0.012 29 18 ⩽LOQ ⩽LOQ 0.043 1.2 ⩽LOQ 1.9 ⩽LOQ 22 0.091 0.0039 0.18 0.011 0.19 ⩽LOQ 6 0.15 117 0.1 0.69 ⩽LOQ
P33 3.218 45.74 319 2020-07-27 12:15:00 3.5 0.99 2.6 9.6 0.028 46 29 ⩽LOQ ⩽LOQ 0.036 2.3 ⩽LOQ 3.2 ⩽LOQ 31 0.35 ⩽LOQ 0.17 0.011 0.13 ⩽LOQ 7.4 ⩽LOQ 124 0.06 0.82 ⩽LOQ
P33 3.218 45.74 319 2020-09-07 12:30:00 2.8 0.94 2.2 9.1 ⩽LOQ 49 28 ⩽LOQ ⩽LOQ 0.054 1.8 ⩽LOQ 44 ⩽LOQ 26 9.5 ⩽LOQ 0.18 ⩽LOQ 0.18 ⩽LOQ 7.2 0.075 125 0.074 0.64 ⩽LOQ
P33 3.218 45.74 319 2020-10-05 12:15:00 9.1 1.2 2.9 8.5 ⩽LOQ 53 31 ⩽LOQ ⩽LOQ 0.029 1.3 ⩽LOQ 3.8 ⩽LOQ 31 0.18 ⩽LOQ 0.26 0.014 0.16 ⩽LOQ 7.4 0.16 97.7 0.047 1 ⩽LOQ
P33 3.218 45.74 319 2020-11-02 12:00:00 8.7 1.1 2.8 7 0.015 44 21 ⩽LOQ ⩽LOQ 0.035 1.3 0.015 5 ⩽LOQ 25 0.18 0.0036 0.26 ⩽LOQ ⩽LOQ ⩽LOQ 7 0.088 97.8 0.06 0.91 1.5
P33 3.218 45.74 319 2020-12-07 12:15:00 12 1.2 2.9 6.8 0.27 38 15 ⩽LOQ ⩽LOQ 0.036 1.1 ⩽LOQ 15 ⩽LOQ 29 0.77 ⩽LOQ 0.98 ⩽LOQ 0.14 0.026 7.1 0.07 98.9 0.066 0.92 0.75
P33 3.218 45.74 319 2021-01-11 12:15:00 57 1.3 2.7 8 ⩽LOQ 42 22 ⩽LOQ ⩽LOQ 0.049 0.9 ⩽LOQ 24 ⩽LOQ 32 1.6 ⩽LOQ 0.37 0.028 0.13 0.046 8.4 0.099 123 0.14 1 6.2
P33 3.218 45.74 319 2021-02-08 12:15:00 14 0.99 2.7 7.3 0.012 38 20 ⩽LOQ 0.11 0.037 1.1 ⩽LOQ 14 ⩽LOQ 28 1.2 0.0053 0.25 ⩽LOQ 0.16 0.018 6.4 0.34 102 0.06 0.99 5.5
P33 3.218 45.74 319 2021-03-01 12:00:00 8.6 0.99 3 5.2 ⩽LOQ 37 19 ⩽LOQ ⩽LOQ 0.031 ⩽LOQ ⩽LOQ 3.6 ⩽LOQ 27 0.22 0.0029 0.29 ⩽LOQ 0.11 0.01 6.5 0.21 108 0.082 0.86 ⩽LOQ
P33 3.218 45.74 319 2021-05-03 13:00:00 5.3 0.81 2.2 6.5 0.019 38 24 0.0071 ⩽LOQ 0.035 1.5 ⩽LOQ 3.5 0.012 25 0.11 ⩽LOQ 0.22 ⩽LOQ ⩽LOQ 0.014 5.2 0.16 101 0.064 0.54 0.2
P33 3.218 45.74 319 2021-06-07 12:00:00 9.8 0.78 2.3 4.8 ⩽LOQ 27 13 0.0065 ⩽LOQ 0.037 0.67 ⩽LOQ 9.8 0.012 19 1.3 0.031 ⩽LOQ 0.023 ⩽LOQ 0.013 4.5 0.38 72.4 0.056 0.61 ⩽LOQ
P33 3.218 45.74 319 2021-07-05 12:00:00 11 1 2.4 9.5 0.018 40 31 ⩽LOQ ⩽LOQ 0.054 1.6 0.017 65 ⩽LOQ 25 4.7 0.028 0.4 0.012 0.16 0.026 6.7 0.17 106 0.063 0.75 2.6
P33 3.218 45.74 319 2021-07-26 12:15:00 5.1 1.1 2.7 10 0.012 44 31 ⩽LOQ 0.15 0.038 6.8 ⩽LOQ 4.5 ⩽LOQ 31 0.24 ⩽LOQ 0.21 0.011 0.14 0.011 6.9 0.11 109 0.073 0.98 0.88


Isotopic characterization of water

Station ID Longitude Latitude Altitude Sampling Time δ2H δ2H std dev δ18O δ18O std dev
degrees degrees m UTC permil permil permil permil
P33 3.218 45.74 319 2011-02-14 00:00:00 -57.584463599161 0.46 -8.66492298640051 0.03
P33 3.218 45.74 319 2011-02-28 00:00:00 -58.227356024162 0.52 -8.45998942666273 0.04
P33 3.218 45.74 319 2011-03-14 00:00:00 -58.6252539288741 1.05 -8.58941900009938 0.12
P33 3.218 45.74 319 2011-03-28 00:00:00 -58.3390864482385 0.3 -8.80522655226943 0.06
P33 3.218 45.74 319 2011-04-11 00:00:00 -58.3536678319568 0.15 -8.69143797225331 0.03
P33 3.218 45.74 319 2011-04-26 00:00:00 -58.7097670123773 0.65 -8.55517527975337 0.04
P33 3.218 45.74 319 2011-05-09 00:00:00 -57.8793794049684 -8.55291126987484
P33 3.218 45.74 319 2011-05-23 00:00:00 -56.2695389177197 0.2 -8.23140409028738 0.08
P33 3.218 45.74 319 2011-06-06 00:00:00 -54.8132453712767 0.35 -7.78897918164068 0.05
P33 3.218 45.74 319 2011-06-20 00:00:00 -54.4600269119392 1.48 -7.86465803313519 0.21
P33 3.218 45.74 319 2011-07-04 00:00:00 -53.3212388672103 -7.70426689057632
P33 3.218 45.74 319 2011-07-18 00:00:00 -52.5035894024974 0.62 -7.62609134380364 0.08
P33 3.218 45.74 319 2011-08-01 00:00:00 -52.85 0.49 -7.59 0.04
P33 3.218 45.74 319 2011-08-16 00:00:00 -52.7182160494947 0.17 -7.82643882353602 0.07
P33 3.218 45.74 319 2011-08-29 00:00:00 -53.128830954537 0.24 -7.71306755340692 0.06
P33 3.218 45.74 319 2011-09-12 00:00:00 -52.0939209921103 0.19 -7.36825094913655 0.02
P33 3.218 45.74 319 2011-09-26 00:00:00 -50.1076880324206 -7.1836156878118
P33 3.218 45.74 319 2011-10-10 00:00:00 -50.1417268298133 -7.00344648521315
P33 3.218 45.74 319 2011-10-24 00:00:00 -50.9501177570378 -7.11898390387699
P33 3.218 45.74 319 2011-11-07 00:00:00 -51.2951397035855 -7.30954194814328
P33 3.218 45.74 319 2011-11-21 00:00:00 -51.0029933734372 -7.37870497845378
P33 3.218 45.74 319 2011-12-05 00:00:00 -51.7346924879656 -7.88021389353901
P33 3.218 45.74 319 2011-12-19 00:00:00 -53.4626308664448 -7.95679506575996
P33 3.218 45.74 319 2012-01-03 00:00:00 -55.4363705975014 -8.21894847870706
P33 3.218 45.74 319 2012-01-16 00:00:00 -55.77 -8.35
P33 3.218 45.74 319 2012-01-30 00:00:00 -55.45 -8.29
P33 3.218 45.74 319 2012-02-13 00:00:00 -56.07 -8.55
P33 3.218 45.74 319 2012-02-27 00:00:00 -56.95 -8.55
P33 3.218 45.74 319 2012-03-12 00:00:00 -56.99 -8.41
P33 3.218 45.74 319 2012-03-26 00:00:00 -57.37 -8.53
P33 3.218 45.74 319 2012-04-10 00:00:00 -56.91 -8.9
P33 3.218 45.74 319 2012-04-23 00:00:00 -57.17 -8.64
P33 3.218 45.74 319 2012-05-09 00:00:00 -58.41 -8.7
P33 3.218 45.74 319 2012-05-21 00:00:00 -57.38 -8.51
P33 3.218 45.74 319 2012-06-04 00:00:00 -56.17 -8.36
P33 3.218 45.74 319 2012-06-18 00:00:00 -55.79 -8.33
P33 3.218 45.74 319 2012-07-02 00:00:00 -55.836933151287 -8.20463686107664
P33 3.218 45.74 319 2012-07-16 00:00:00 -56.2303072433362 -8.15447149211292
P33 3.218 45.74 319 2012-07-30 00:00:00 -54.5762973306685 -7.94465679967465
P33 3.218 45.74 319 2012-08-13 00:00:00 -53.8302635555373 -7.95535962037445
P33 3.218 45.74 319 2012-08-27 00:00:00 -52.5517477740449 -7.87989466187211
P33 3.218 45.74 319 2012-09-10 00:00:00 -52.8375280627188 -7.71281405734567
P33 3.218 45.74 319 2012-09-24 00:00:00 -49.8903458459594 -7.08583595581513
P33 3.218 45.74 319 2012-10-08 00:00:00 -49.6885505636334 -7.34628780317868
P33 3.218 45.74 319 2012-10-22 00:00:00 -50.76 -7.37
P33 3.218 45.74 319 2012-11-05 00:00:00 -50.8177993381284 -7.39418584150985
P33 3.218 45.74 319 2012-12-03 00:00:00 -52.0591937745615 -7.5684712993355
P33 3.218 45.74 319 2013-01-07 00:00:00 -54.2845680928789 -8.07386690274308
P33 3.218 45.74 319 2013-02-04 00:00:00 -55.2890240854659 -8.39246349046024
P33 3.218 45.74 319 2013-03-11 00:00:00 -57.0140838023829 -8.58285529432985
P33 3.218 45.74 319 2013-04-08 00:00:00 -58.6250459210652 -8.83548048114025
P33 3.218 45.74 319 2013-05-06 00:00:00 -58.3134735093568 -8.74153945689923
P33 3.218 45.74 319 2013-06-03 00:00:00 -57.4112504675016 -8.49370952342459
P33 3.218 45.74 319 2013-06-03 12:00:00 -57.6704313641967 -8.59342904084673
P33 3.218 45.74 319 2013-07-01 00:00:00 -58.4974444326234 -8.76798197692045
P33 3.218 45.74 319 2013-07-29 00:00:00 -56.6938112527153 -8.39099398856246
P33 3.218 45.74 319 2013-09-02 00:00:00 -53.0635737193299 -7.73901133746369
P33 3.218 45.74 319 2013-10-07 00:00:00 -53.4675495303765 -7.85262415587289
P33 3.218 45.74 319 2013-11-04 00:00:00 -53.8917023409446 -7.87726437053306
P33 3.218 45.74 319 2013-12-02 00:00:00 -56.0697141440702 -8.2107240850527
P33 3.218 45.74 319 2014-03-10 00:00:00 -58.47 0.38 -8.79 0.09
P33 3.218 45.74 319 2014-04-07 00:00:00 -58.29 0.34 -8.71 0.08
P33 3.218 45.74 319 2014-05-12 00:00:00 -56.79 0.3 -8.63 0.07
P33 3.218 45.74 319 2014-06-02 00:00:00 -56.34 0.45 -8.46 0.08
P33 3.218 45.74 319 2014-07-07 00:00:00 -53.54 0.41 -8.08 0.04
P33 3.218 45.74 319 2014-07-28 00:00:00 -52.29 0.49 -7.79 0.06
P33 3.218 45.74 319 2014-09-01 00:00:00 -53.03 0.3 -8 0.11
P33 3.218 45.74 319 2014-10-06 00:00:00 -52.14 0.21 -7.86 0.04
P33 3.218 45.74 319 2014-11-03 00:00:00 -51.86 0.2 -7.91 0.05
P33 3.218 45.74 319 2014-12-01 00:00:00 -55.56 0.24 -8.39 0.1
P33 3.218 45.74 319 2015-01-12 00:00:00 -55.1738756921631 0.137674175273968 -8.37066237487761 0.0385477410742342
P33 3.218 45.74 319 2015-02-02 00:00:00 -55.7762395892438 0.265277599612054 -8.4309877308911 0.0485520964871862
P33 3.218 45.74 319 2015-03-02 00:00:00 -56.9585962345453 0.774902040585957 -8.57393259622717 0.0650090916502522
P33 3.218 45.74 319 2015-03-30 11:00:00 -58.0274400134093 0.0975827810427939 -8.72212314469476 0.0981377451901276
P33 3.218 45.74 319 2015-05-04 12:00:00 -57.7548434217455 0.36757743233483 -8.77589139679372 0.090186602068111
P33 3.218 45.74 319 2015-06-01 00:00:00 -55.7503091846917 0.0919735990295958 -8.40662808368521 0.0477927394474311
P33 3.218 45.74 319 2015-07-06 12:30:00 -53.2675678445034 0.503357488211038 -7.96401543546384 0.130460778671811
P33 3.218 45.74 319 2015-07-27 00:00:00 -49.1378161523546 0.600323978660701 -7.24457397108552 0.089681794461541
P33 3.218 45.74 319 2015-08-31 00:00:00 -48.1056914698963 0.333782146920139 -7.01780778079944 0.0512700707837441
P33 3.218 45.74 319 2015-10-05 00:00:00 -49.1239566581983 0.201630332010183 -7.44001886437073 0.0878903350221056
P33 3.218 45.74 319 2015-11-02 00:00:00 -51.1546401441932 0.473486167694285 -7.68902635437095 0.0928908580269745
P33 3.218 45.74 319 2015-12-07 00:00:00 -51.9918250846596 0.369682132922608 -7.88630356219923 0.123520752256787
P33 3.218 45.74 319 2016-01-04 00:00:00 -52.97 0.67 -7.77 0.06
P33 3.218 45.74 319 2016-02-01 00:00:00 -55.4630950361461 0.284153364881727 -8.42656303357539 0.217221679182687
P33 3.218 45.74 319 2016-03-07 00:00:00 -57.3695175066586 0.19408586988377 -8.47656963381644 0.00347803339021605
P33 3.218 45.74 319 2016-04-04 00:00:00 -57.8623285463334 0.145113960370537 -8.53969271936686 0.247372705326565
P33 3.218 45.74 319 2016-05-09 00:00:00 -56.2417863416693 0.260703475960338 -8.30359598380198 0.280249792976034
P33 3.218 45.74 319 2016-06-06 00:00:00 -54.8738219576642 0.372602478928292 -8.15157732373743 0.0533977262461788
P33 3.218 45.74 319 2016-07-04 00:00:00 -55.8416534548709 0.129830874888754 -8.23078926578415 0.0375952608619934
P33 3.218 45.74 319 2016-07-25 00:00:00 -55.9674504703411 0.329547791967158 -8.63517499486409 0.103239172678689
P33 3.218 45.74 319 2016-08-29 00:00:00 -52.496547877368 0.312782098345304 -7.86385727877629 0.04466461243249
P33 3.218 45.74 319 2016-10-03 00:00:00 -48.8679889565381 0.3889645231899 -7.24214331684226 0.0641417356653282
P33 3.218 45.74 319 2016-11-07 00:00:00 -51.06286064592 0.380308449136594 -7.51682561955079 0.0380996786427652
P33 3.218 45.74 319 2016-12-05 00:00:00 -52.5776802593098 0.109378161738368 -7.86506464792703 0.00711720410986914
P33 3.218 45.74 319 2017-01-09 00:00:00 -54.2756883528901 0.364462550951764 -8.33904566650307 0.0586570907570607
P33 3.218 45.74 319 2017-02-06 00:00:00 -55.3484172013481 0.462191279080267 -8.29538721932329 0.0535605347764076
P33 3.218 45.74 319 2017-03-06 00:00:00 -56.9115098693601 0.403011899752327 -8.7617974438736 0.0473314262525984
P33 3.218 45.74 319 2017-04-03 00:00:00 -57.0078335569966 0.142071547563693 -8.76840713163401 0.0350946513685834
P33 3.218 45.74 319 2017-05-09 00:00:00 -55.034132778307 0.588442110523496 -8.52074028116886 0.105580113089399
P33 3.218 45.74 319 2017-06-06 00:00:00 -56.0404170921599 0.426706616666246 -8.73673575822841 0.100678846934633
P33 3.218 45.74 319 2017-07-03 00:00:00 -52.5951540684244 0.20052953873922 -7.92719804817853 0.0194178343829668
P33 3.218 45.74 319 2017-07-24 00:00:00 -53.3782565437563 0.237162736150732 -8.00552063327669 0.0249970558429427
P33 3.218 45.74 319 2017-09-04 00:00:00 -50.4443339965851 0.612806555543128 -7.42826424053672 0.0523632876095271
P33 3.218 45.74 319 2017-10-02 00:00:00 -51.2773701201857 0.309810871173762 -7.68202050866017 0.0796622194397544
P33 3.218 45.74 319 2017-11-06 00:00:00 -50.1438267651126 0.622878170838161 -7.56220855058103 0.0748153772306559
P33 3.218 45.74 319 2017-12-04 00:00:00 -51.2219050935568 0.0845642073986357 -7.55535240014024 0.0382417826020602
P33 3.218 45.74 319 2018-01-08 00:00:00 -57.6006693682477 0.634707615333258 -8.92718573847534 0.0505521296333194
P33 3.218 45.74 319 2018-02-05 00:00:00 -59.3658741938622 0.900705398360836 -9.22886994451261 0.0632095712008193
P33 3.218 45.74 319 2018-03-05 00:00:00 -60.1963349393901 0.430711635288774 -9.3029449241468 0.0602622549394622
P33 3.218 45.74 319 2018-04-09 00:00:00 -59.4738952558581 0.0590008155468314 -9.24931755532316 0.04500750079436
P33 3.218 45.74 319 2018-05-14 00:00:00 -58.100042996623 0.411558012802654 -9.16260487230147 0.171213198621715
P33 3.218 45.74 319 2018-06-04 00:00:00 -58.2850546210674 0.22410205259488 -8.90749219315507 0.173011391581446
P33 3.218 45.74 319 2018-07-02 00:00:00 -57.6292606282363 0.443549565284803 -9.02834306462225 0.186108362833461
P33 3.218 45.74 319 2018-07-23 00:00:00 -56.5256227029549 0.285469227749949 -8.71642312619148 0.0148993492569787
P33 3.218 45.74 319 2018-09-03 00:00:00 -57.2564940303048 0.513417030237827 -8.73238876826038 0.117210418842731
P33 3.218 45.74 319 2018-11-08 00:00:00 -57.3810934697254 0.967253264263389 -8.97885415627048 0.0609637107394509
P33 3.218 45.74 319 2018-12-03 00:00:00 -65.1323081752678 0.0278772810229577 -10.1292554049056 0.0374325601435706
P33 3.218 45.74 319 2019-01-07 00:00:00 -53.7781859094677 0.386561306586031 -8.37826422700322 0.15146466651026
P33 3.218 45.74 319 2019-02-11 00:00:00 -57.9493253688763 0.236579483468602 -9.0544702792299 0.102732985614091
P33 3.218 45.74 319 2019-03-04 00:00:00 -60.3025072067843 0.297450646668984 -9.23750622130004 0.00785169292032818
P33 3.218 45.74 319 2019-04-01 00:00:00 -59.3918769882151 0.54226360392481 -9.26987047457101 0.14451870694437
P33 3.218 45.74 319 2019-05-13 00:00:00 -57.8381234386188 0.595182997155361 -9.1047492290865 0.0981117296065117
P33 3.218 45.74 319 2019-06-03 00:00:00 -58.0204758016409 0.57220889809576 -9.08473440321039 0.13996555750956
P33 3.218 45.74 319 2019-07-01 00:00:00 -57.5786609640416 0.0731828488691348 -9.00621218916536 0.017326600684669
P33 3.218 45.74 319 2019-07-29 00:00:00 -53.2028793757818 0.770038042965867 -8.16912912710499 0.0657821938678956
P33 3.218 45.74 319 2019-09-02 00:00:00 -51.9906325119701 0.530871772757239 -8.01291803100329 0.105791191189943
P33 3.218 45.74 319 2019-10-07 00:00:00 -51.0891707466604 0.0958148457452912 -7.69040810743254 0.05000498394796
P33 3.218 45.74 319 2019-11-04 00:00:00 -49.6724027270224 0.453647760872704 -7.86308326661428 0.0906448817841815
P33 3.218 45.74 319 2019-12-02 00:00:00 -54.7581491957305 0.349860650614011 -8.60898115492303 0.0054930000748429


Analysis of pesticides in water

Station ID Longitude Latitude Altitude Sampling Time Acide monochloroacétique Acide trichloroacétique AMPA Atrazine déisopropyl Atrazine déséthyl Atrazine déséthyl déisopropyl Bentazone Biphényle Carbendazime Cyproconazole Diuron Hexaconazole MCPA- Esters Piperonil Butoxyde Sulfosulfuron Thiodicarbe
degrees degrees m UTC μg/L μg/L μg/L μg/L μg/L μg/L μg/L μg/L μg/L μg/L μg/L μg/L μg/L μg/L μg/L μg/L
P33 3.218 45.74 319 2014-01-13 00:00:00 ⩽LOQ ⩽LOQ ⩽LOQ ⩽LOQ ⩽LOQ ⩽LOQ ⩽LOQ ⩽LOQ ⩽LOQ ⩽LOQ ⩽LOQ ⩽LOQ ⩽LOQ ⩽LOQ ⩽LOQ ⩽LOQ
P33 3.218 45.74 319 2014-02-10 00:00:00 ⩽LOQ ⩽LOQ ⩽LOQ ⩽LOQ ⩽LOQ ⩽LOQ ⩽LOQ ⩽LOQ ⩽LOQ ⩽LOQ ⩽LOQ ⩽LOQ ⩽LOQ ⩽LOQ ⩽LOQ ⩽LOQ
P33 3.218 45.74 319 2014-03-10 00:00:00 ⩽LOQ ⩽LOQ ⩽LOQ ⩽LOQ ⩽LOQ ⩽LOQ ⩽LOQ ⩽LOQ ⩽LOQ ⩽LOQ ⩽LOQ ⩽LOQ ⩽LOQ ⩽LOQ ⩽LOQ ⩽LOQ
P33 3.218 45.74 319 2014-04-07 00:00:00 ⩽LOQ ⩽LOQ ⩽LOQ ⩽LOQ ⩽LOQ ⩽LOQ ⩽LOQ ⩽LOQ ⩽LOQ ⩽LOQ ⩽LOQ ⩽LOQ ⩽LOQ ⩽LOQ ⩽LOQ ⩽LOQ
P33 3.218 45.74 319 2014-05-12 00:00:00 ⩽LOQ ⩽LOQ ⩽LOQ 0.006 ⩽LOQ ⩽LOQ ⩽LOQ ⩽LOQ ⩽LOQ ⩽LOQ ⩽LOQ ⩽LOQ ⩽LOQ ⩽LOQ ⩽LOQ ⩽LOQ
P33 3.218 45.74 319 2014-06-02 00:00:00 ⩽LOQ ⩽LOQ ⩽LOQ ⩽LOQ ⩽LOQ ⩽LOQ ⩽LOQ ⩽LOQ ⩽LOQ ⩽LOQ ⩽LOQ ⩽LOQ ⩽LOQ ⩽LOQ ⩽LOQ ⩽LOQ
P33 3.218 45.74 319 2014-07-07 00:00:00 0.3 ⩽LOQ ⩽LOQ ⩽LOQ ⩽LOQ ⩽LOQ ⩽LOQ ⩽LOQ ⩽LOQ ⩽LOQ ⩽LOQ ⩽LOQ ⩽LOQ ⩽LOQ ⩽LOQ ⩽LOQ
P33 3.218 45.74 319 2014-07-28 00:00:00 0.4 ⩽LOQ ⩽LOQ ⩽LOQ ⩽LOQ ⩽LOQ ⩽LOQ ⩽LOQ ⩽LOQ ⩽LOQ ⩽LOQ ⩽LOQ ⩽LOQ ⩽LOQ ⩽LOQ ⩽LOQ
P33 3.218 45.74 319 2014-09-01 00:00:00 ⩽LOQ ⩽LOQ ⩽LOQ ⩽LOQ ⩽LOQ ⩽LOQ ⩽LOQ ⩽LOQ ⩽LOQ ⩽LOQ ⩽LOQ ⩽LOQ ⩽LOQ ⩽LOQ ⩽LOQ ⩽LOQ
P33 3.218 45.74 319 2014-10-06 00:00:00 ⩽LOQ ⩽LOQ ⩽LOQ ⩽LOQ ⩽LOQ ⩽LOQ ⩽LOQ ⩽LOQ ⩽LOQ ⩽LOQ ⩽LOQ ⩽LOQ ⩽LOQ ⩽LOQ ⩽LOQ ⩽LOQ
P33 3.218 45.74 319 2014-11-03 00:00:00 ⩽LOQ ⩽LOQ ⩽LOQ ⩽LOQ ⩽LOQ ⩽LOQ ⩽LOQ ⩽LOQ ⩽LOQ ⩽LOQ ⩽LOQ ⩽LOQ ⩽LOQ ⩽LOQ ⩽LOQ ⩽LOQ
P33 3.218 45.74 319 2014-12-01 00:00:00 ⩽LOQ ⩽LOQ ⩽LOQ ⩽LOQ ⩽LOQ ⩽LOQ ⩽LOQ ⩽LOQ ⩽LOQ ⩽LOQ ⩽LOQ ⩽LOQ ⩽LOQ ⩽LOQ ⩽LOQ ⩽LOQ
P33 3.218 45.74 319 2015-01-19 00:00:00 ⩽LOQ ⩽LOQ ⩽LOQ ⩽LOQ ⩽LOQ ⩽LOQ ⩽LOQ ⩽LOQ ⩽LOQ ⩽LOQ ⩽LOQ ⩽LOQ ⩽LOQ ⩽LOQ ⩽LOQ ⩽LOQ
P33 3.218 45.74 319 2015-02-02 00:00:00 ⩽LOQ ⩽LOQ ⩽LOQ ⩽LOQ ⩽LOQ ⩽LOQ ⩽LOQ ⩽LOQ ⩽LOQ ⩽LOQ ⩽LOQ ⩽LOQ ⩽LOQ ⩽LOQ ⩽LOQ ⩽LOQ
P33 3.218 45.74 319 2015-03-02 00:00:00 ⩽LOQ ⩽LOQ ⩽LOQ ⩽LOQ ⩽LOQ ⩽LOQ ⩽LOQ ⩽LOQ ⩽LOQ ⩽LOQ ⩽LOQ ⩽LOQ ⩽LOQ ⩽LOQ ⩽LOQ ⩽LOQ
P33 3.218 45.74 319 2015-03-30 00:00:00 ⩽LOQ ⩽LOQ ⩽LOQ ⩽LOQ ⩽LOQ ⩽LOQ ⩽LOQ ⩽LOQ ⩽LOQ ⩽LOQ ⩽LOQ ⩽LOQ ⩽LOQ ⩽LOQ ⩽LOQ ⩽LOQ
P33 3.218 45.74 319 2015-05-04 00:00:00 ⩽LOQ ⩽LOQ 0.182 ⩽LOQ ⩽LOQ ⩽LOQ ⩽LOQ ⩽LOQ ⩽LOQ ⩽LOQ ⩽LOQ ⩽LOQ ⩽LOQ ⩽LOQ ⩽LOQ ⩽LOQ
P33 3.218 45.74 319 2015-06-01 00:00:00 ⩽LOQ ⩽LOQ ⩽LOQ ⩽LOQ ⩽LOQ ⩽LOQ ⩽LOQ ⩽LOQ ⩽LOQ ⩽LOQ ⩽LOQ ⩽LOQ ⩽LOQ ⩽LOQ ⩽LOQ ⩽LOQ
P33 3.218 45.74 319 2015-07-06 00:00:00 ⩽LOQ ⩽LOQ ⩽LOQ ⩽LOQ ⩽LOQ ⩽LOQ ⩽LOQ 0.009 ⩽LOQ ⩽LOQ ⩽LOQ ⩽LOQ ⩽LOQ 0.005 ⩽LOQ ⩽LOQ
P33 3.218 45.74 319 2015-07-27 00:00:00 ⩽LOQ ⩽LOQ ⩽LOQ ⩽LOQ ⩽LOQ ⩽LOQ ⩽LOQ ⩽LOQ ⩽LOQ ⩽LOQ ⩽LOQ ⩽LOQ ⩽LOQ ⩽LOQ ⩽LOQ ⩽LOQ
P33 3.218 45.74 319 2015-08-31 00:00:00 ⩽LOQ ⩽LOQ ⩽LOQ ⩽LOQ ⩽LOQ ⩽LOQ ⩽LOQ ⩽LOQ ⩽LOQ ⩽LOQ ⩽LOQ ⩽LOQ ⩽LOQ ⩽LOQ ⩽LOQ ⩽LOQ
P33 3.218 45.74 319 2015-10-05 00:00:00 ⩽LOQ ⩽LOQ ⩽LOQ ⩽LOQ ⩽LOQ ⩽LOQ ⩽LOQ ⩽LOQ ⩽LOQ ⩽LOQ ⩽LOQ ⩽LOQ ⩽LOQ ⩽LOQ ⩽LOQ ⩽LOQ
P33 3.218 45.74 319 2015-11-02 00:00:00 ⩽LOQ ⩽LOQ ⩽LOQ ⩽LOQ ⩽LOQ ⩽LOQ ⩽LOQ ⩽LOQ ⩽LOQ ⩽LOQ ⩽LOQ ⩽LOQ ⩽LOQ ⩽LOQ ⩽LOQ ⩽LOQ
P33 3.218 45.74 319 2015-12-07 00:00:00 ⩽LOQ ⩽LOQ ⩽LOQ ⩽LOQ ⩽LOQ ⩽LOQ ⩽LOQ ⩽LOQ ⩽LOQ ⩽LOQ ⩽LOQ ⩽LOQ ⩽LOQ ⩽LOQ ⩽LOQ ⩽LOQ
P33 3.218 45.74 319 2016-01-04 00:00:00 ⩽LOQ ⩽LOQ ⩽LOQ ⩽LOQ ⩽LOQ ⩽LOQ ⩽LOQ ⩽LOQ ⩽LOQ ⩽LOQ ⩽LOQ ⩽LOQ ⩽LOQ ⩽LOQ ⩽LOQ ⩽LOQ
P33 3.218 45.74 319 2016-02-01 00:00:00 ⩽LOQ ⩽LOQ ⩽LOQ ⩽LOQ ⩽LOQ ⩽LOQ ⩽LOQ ⩽LOQ ⩽LOQ ⩽LOQ ⩽LOQ ⩽LOQ ⩽LOQ ⩽LOQ ⩽LOQ ⩽LOQ
P33 3.218 45.74 319 2016-03-07 00:00:00 ⩽LOQ ⩽LOQ ⩽LOQ ⩽LOQ ⩽LOQ ⩽LOQ ⩽LOQ ⩽LOQ ⩽LOQ ⩽LOQ ⩽LOQ ⩽LOQ ⩽LOQ ⩽LOQ ⩽LOQ ⩽LOQ
P33 3.218 45.74 319 2016-04-04 00:00:00 ⩽LOQ ⩽LOQ ⩽LOQ ⩽LOQ ⩽LOQ ⩽LOQ ⩽LOQ ⩽LOQ ⩽LOQ ⩽LOQ ⩽LOQ ⩽LOQ ⩽LOQ ⩽LOQ ⩽LOQ ⩽LOQ
P33 3.218 45.74 319 2016-05-09 00:00:00 ⩽LOQ ⩽LOQ ⩽LOQ ⩽LOQ ⩽LOQ ⩽LOQ ⩽LOQ ⩽LOQ ⩽LOQ ⩽LOQ ⩽LOQ ⩽LOQ ⩽LOQ ⩽LOQ ⩽LOQ ⩽LOQ
P33 3.218 45.74 319 2016-06-06 00:00:00 ⩽LOQ ⩽LOQ ⩽LOQ ⩽LOQ ⩽LOQ ⩽LOQ ⩽LOQ ⩽LOQ ⩽LOQ ⩽LOQ ⩽LOQ ⩽LOQ ⩽LOQ ⩽LOQ ⩽LOQ ⩽LOQ
P33 3.218 45.74 319 2016-07-04 00:00:00 ⩽LOQ ⩽LOQ ⩽LOQ ⩽LOQ ⩽LOQ ⩽LOQ ⩽LOQ ⩽LOQ ⩽LOQ ⩽LOQ ⩽LOQ ⩽LOQ ⩽LOQ ⩽LOQ ⩽LOQ ⩽LOQ
P33 3.218 45.74 319 2016-07-25 00:00:00 ⩽LOQ ⩽LOQ ⩽LOQ ⩽LOQ ⩽LOQ ⩽LOQ ⩽LOQ ⩽LOQ ⩽LOQ ⩽LOQ ⩽LOQ ⩽LOQ ⩽LOQ ⩽LOQ ⩽LOQ ⩽LOQ
P33 3.218 45.74 319 2016-08-29 00:00:00 ⩽LOQ ⩽LOQ ⩽LOQ ⩽LOQ ⩽LOQ ⩽LOQ ⩽LOQ ⩽LOQ ⩽LOQ ⩽LOQ ⩽LOQ ⩽LOQ ⩽LOQ ⩽LOQ ⩽LOQ ⩽LOQ
P33 3.218 45.74 319 2016-10-03 00:00:00 ⩽LOQ ⩽LOQ ⩽LOQ ⩽LOQ ⩽LOQ ⩽LOQ ⩽LOQ ⩽LOQ ⩽LOQ ⩽LOQ ⩽LOQ ⩽LOQ ⩽LOQ ⩽LOQ ⩽LOQ ⩽LOQ
P33 3.218 45.74 319 2016-11-07 00:00:00 ⩽LOQ ⩽LOQ ⩽LOQ ⩽LOQ ⩽LOQ ⩽LOQ ⩽LOQ ⩽LOQ ⩽LOQ ⩽LOQ ⩽LOQ ⩽LOQ ⩽LOQ ⩽LOQ ⩽LOQ ⩽LOQ
P33 3.218 45.74 319 2016-12-05 00:00:00 ⩽LOQ ⩽LOQ ⩽LOQ ⩽LOQ ⩽LOQ ⩽LOQ ⩽LOQ ⩽LOQ ⩽LOQ ⩽LOQ ⩽LOQ ⩽LOQ ⩽LOQ ⩽LOQ ⩽LOQ ⩽LOQ
P33 3.218 45.74 319 2017-01-09 00:00:00 ⩽LOQ ⩽LOQ ⩽LOQ ⩽LOQ ⩽LOQ ⩽LOQ ⩽LOQ ⩽LOQ ⩽LOQ ⩽LOQ ⩽LOQ ⩽LOQ ⩽LOQ ⩽LOQ ⩽LOQ ⩽LOQ
P33 3.218 45.74 319 2017-02-06 00:00:00 ⩽LOQ ⩽LOQ ⩽LOQ ⩽LOQ ⩽LOQ ⩽LOQ ⩽LOQ ⩽LOQ ⩽LOQ ⩽LOQ ⩽LOQ ⩽LOQ ⩽LOQ ⩽LOQ ⩽LOQ ⩽LOQ
P33 3.218 45.74 319 2017-03-06 00:00:00 ⩽LOQ ⩽LOQ ⩽LOQ ⩽LOQ ⩽LOQ ⩽LOQ ⩽LOQ ⩽LOQ ⩽LOQ ⩽LOQ ⩽LOQ ⩽LOQ ⩽LOQ ⩽LOQ ⩽LOQ ⩽LOQ
P33 3.218 45.74 319 2017-04-03 00:00:00 ⩽LOQ ⩽LOQ ⩽LOQ ⩽LOQ ⩽LOQ ⩽LOQ ⩽LOQ ⩽LOQ ⩽LOQ ⩽LOQ ⩽LOQ ⩽LOQ ⩽LOQ ⩽LOQ ⩽LOQ ⩽LOQ
P33 3.218 45.74 319 2017-05-09 00:00:00 ⩽LOQ ⩽LOQ ⩽LOQ ⩽LOQ ⩽LOQ ⩽LOQ ⩽LOQ ⩽LOQ ⩽LOQ ⩽LOQ ⩽LOQ ⩽LOQ ⩽LOQ ⩽LOQ ⩽LOQ ⩽LOQ
P33 3.218 45.74 319 2017-06-06 00:00:00 ⩽LOQ ⩽LOQ ⩽LOQ ⩽LOQ ⩽LOQ ⩽LOQ ⩽LOQ ⩽LOQ ⩽LOQ ⩽LOQ ⩽LOQ ⩽LOQ ⩽LOQ ⩽LOQ ⩽LOQ ⩽LOQ
P33 3.218 45.74 319 2017-07-03 00:00:00 ⩽LOQ 39 ⩽LOQ ⩽LOQ ⩽LOQ ⩽LOQ ⩽LOQ ⩽LOQ ⩽LOQ ⩽LOQ ⩽LOQ ⩽LOQ ⩽LOQ ⩽LOQ ⩽LOQ ⩽LOQ
P33 3.218 45.74 319 2017-07-24 00:00:00 ⩽LOQ ⩽LOQ ⩽LOQ ⩽LOQ ⩽LOQ ⩽LOQ ⩽LOQ ⩽LOQ ⩽LOQ ⩽LOQ ⩽LOQ ⩽LOQ ⩽LOQ ⩽LOQ ⩽LOQ ⩽LOQ
P33 3.218 45.74 319 2017-09-04 00:00:00 ⩽LOQ ⩽LOQ ⩽LOQ ⩽LOQ ⩽LOQ ⩽LOQ ⩽LOQ ⩽LOQ ⩽LOQ ⩽LOQ ⩽LOQ ⩽LOQ ⩽LOQ ⩽LOQ ⩽LOQ ⩽LOQ
P33 3.218 45.74 319 2017-10-02 00:00:00 ⩽LOQ ⩽LOQ ⩽LOQ ⩽LOQ ⩽LOQ ⩽LOQ ⩽LOQ ⩽LOQ ⩽LOQ ⩽LOQ ⩽LOQ ⩽LOQ ⩽LOQ ⩽LOQ ⩽LOQ ⩽LOQ
P33 3.218 45.74 319 2017-11-06 00:00:00 ⩽LOQ ⩽LOQ ⩽LOQ ⩽LOQ 0.01 ⩽LOQ ⩽LOQ ⩽LOQ ⩽LOQ ⩽LOQ ⩽LOQ ⩽LOQ ⩽LOQ ⩽LOQ ⩽LOQ ⩽LOQ
P33 3.218 45.74 319 2017-12-04 00:00:00 ⩽LOQ ⩽LOQ ⩽LOQ ⩽LOQ ⩽LOQ ⩽LOQ ⩽LOQ ⩽LOQ ⩽LOQ ⩽LOQ ⩽LOQ ⩽LOQ ⩽LOQ ⩽LOQ ⩽LOQ ⩽LOQ


Analysis of pharmaceutic in water

Station ID Longitude Latitude Altitude Sampling Time Sulfamethoxazole Irbesatan Paracétamol Tramadol Aspirine Acebutolol Doxepine Oxazepam Carbamazepine Carbamazepine époxyde Furosémide Hydroxychlorothiazide Cafeine Cotinine Nicotine
degrees degrees m UTC μg/L μg/L μg/L μg/L μg/L μg/L μg/L μg/L μg/L μg/L μg/L μg/L μg/L μg/L μg/L
P33 3.218 45.74 319 2011-10-24 00:00:00 0.0016 ⩽LOQ ⩽LOQ ⩽LOQ ⩽LOQ ⩽LOQ ⩽LOQ ⩽LOQ 0.0019 ⩽LOQ ⩽LOQ ⩽LOQ ⩽LOQ ⩽LOQ ⩽LOQ
P33 3.218 45.74 319 2011-11-21 00:00:00 ⩽LOQ ⩽LOQ ⩽LOQ ⩽LOQ ⩽LOQ ⩽LOQ ⩽LOQ ⩽LOQ 0.0018 ⩽LOQ ⩽LOQ 0.006 ⩽LOQ ⩽LOQ ⩽LOQ
P33 3.218 45.74 319 2011-12-19 00:00:00 ⩽LOQ ⩽LOQ ⩽LOQ ⩽LOQ ⩽LOQ ⩽LOQ ⩽LOQ ⩽LOQ 0.0015 ⩽LOQ ⩽LOQ ⩽LOQ ⩽LOQ ⩽LOQ ⩽LOQ
P33 3.218 45.74 319 2012-01-16 00:00:00 ⩽LOQ ⩽LOQ ⩽LOQ ⩽LOQ ⩽LOQ ⩽LOQ ⩽LOQ ⩽LOQ ⩽LOQ ⩽LOQ ⩽LOQ 0.0084 ⩽LOQ ⩽LOQ ⩽LOQ
P33 3.218 45.74 319 2012-02-13 00:00:00 0.0018 ⩽LOQ ⩽LOQ ⩽LOQ ⩽LOQ ⩽LOQ ⩽LOQ ⩽LOQ ⩽LOQ ⩽LOQ ⩽LOQ 0.014 ⩽LOQ ⩽LOQ ⩽LOQ
P33 3.218 45.74 319 2012-03-12 00:00:00 0.0028 ⩽LOQ ⩽LOQ ⩽LOQ ⩽LOQ ⩽LOQ ⩽LOQ ⩽LOQ 0.001 ⩽LOQ ⩽LOQ 0.02 ⩽LOQ ⩽LOQ ⩽LOQ
P33 3.218 45.74 319 2012-04-10 00:00:00 0.0035 ⩽LOQ ⩽LOQ ⩽LOQ ⩽LOQ ⩽LOQ ⩽LOQ ⩽LOQ 0.0026 ⩽LOQ ⩽LOQ 0.01 ⩽LOQ ⩽LOQ ⩽LOQ
P33 3.218 45.74 319 2012-05-09 00:00:00 ⩽LOQ ⩽LOQ ⩽LOQ ⩽LOQ ⩽LOQ ⩽LOQ ⩽LOQ ⩽LOQ ⩽LOQ ⩽LOQ ⩽LOQ ⩽LOQ ⩽LOQ ⩽LOQ ⩽LOQ
P33 3.218 45.74 319 2012-06-04 00:00:00 ⩽LOQ ⩽LOQ ⩽LOQ ⩽LOQ ⩽LOQ ⩽LOQ ⩽LOQ ⩽LOQ 0.002 ⩽LOQ ⩽LOQ ⩽LOQ ⩽LOQ ⩽LOQ ⩽LOQ
P33 3.218 45.74 319 2012-07-02 00:00:00 ⩽LOQ ⩽LOQ ⩽LOQ ⩽LOQ ⩽LOQ ⩽LOQ ⩽LOQ ⩽LOQ ⩽LOQ ⩽LOQ ⩽LOQ 0.0083 ⩽LOQ ⩽LOQ ⩽LOQ
P33 3.218 45.74 319 2012-07-30 00:00:00 0.0015 ⩽LOQ ⩽LOQ ⩽LOQ ⩽LOQ ⩽LOQ ⩽LOQ ⩽LOQ 0.0019 ⩽LOQ ⩽LOQ 0.0078 ⩽LOQ ⩽LOQ ⩽LOQ
P33 3.218 45.74 319 2012-08-27 00:00:00 0.0022 ⩽LOQ ⩽LOQ ⩽LOQ ⩽LOQ ⩽LOQ ⩽LOQ ⩽LOQ 0.0039 ⩽LOQ ⩽LOQ 0.0059 ⩽LOQ ⩽LOQ ⩽LOQ
P33 3.218 45.74 319 2012-09-24 00:00:00 0.0012 ⩽LOQ ⩽LOQ ⩽LOQ ⩽LOQ ⩽LOQ ⩽LOQ ⩽LOQ ⩽LOQ 0.007 ⩽LOQ ⩽LOQ ⩽LOQ ⩽LOQ ⩽LOQ
P33 3.218 45.74 319 2012-10-22 00:00:00 ⩽LOQ ⩽LOQ ⩽LOQ ⩽LOQ ⩽LOQ ⩽LOQ ⩽LOQ ⩽LOQ ⩽LOQ ⩽LOQ ⩽LOQ 0.028 ⩽LOQ ⩽LOQ ⩽LOQ
P33 3.218 45.74 319 2012-12-03 00:00:00 ⩽LOQ ⩽LOQ ⩽LOQ ⩽LOQ ⩽LOQ ⩽LOQ ⩽LOQ ⩽LOQ ⩽LOQ ⩽LOQ ⩽LOQ ⩽LOQ ⩽LOQ ⩽LOQ ⩽LOQ
P33 3.218 45.74 319 2013-01-07 00:00:00 ⩽LOQ ⩽LOQ ⩽LOQ ⩽LOQ ⩽LOQ ⩽LOQ ⩽LOQ ⩽LOQ ⩽LOQ ⩽LOQ ⩽LOQ ⩽LOQ ⩽LOQ ⩽LOQ ⩽LOQ
P33 3.218 45.74 319 2013-02-04 00:00:00 ⩽LOQ ⩽LOQ ⩽LOQ ⩽LOQ ⩽LOQ ⩽LOQ ⩽LOQ ⩽LOQ ⩽LOQ ⩽LOQ ⩽LOQ ⩽LOQ ⩽LOQ ⩽LOQ ⩽LOQ
P33 3.218 45.74 319 2013-03-11 00:00:00 ⩽LOQ ⩽LOQ ⩽LOQ ⩽LOQ ⩽LOQ ⩽LOQ ⩽LOQ ⩽LOQ ⩽LOQ ⩽LOQ ⩽LOQ ⩽LOQ ⩽LOQ ⩽LOQ ⩽LOQ
P33 3.218 45.74 319 2013-04-08 00:00:00 ⩽LOQ ⩽LOQ ⩽LOQ ⩽LOQ ⩽LOQ ⩽LOQ ⩽LOQ ⩽LOQ ⩽LOQ ⩽LOQ ⩽LOQ ⩽LOQ ⩽LOQ ⩽LOQ ⩽LOQ
P33 3.218 45.74 319 2013-05-06 00:00:00 ⩽LOQ ⩽LOQ ⩽LOQ ⩽LOQ ⩽LOQ ⩽LOQ ⩽LOQ ⩽LOQ ⩽LOQ ⩽LOQ ⩽LOQ ⩽LOQ ⩽LOQ ⩽LOQ ⩽LOQ
P33 3.218 45.74 319 2013-06-03 00:00:00 ⩽LOQ ⩽LOQ ⩽LOQ ⩽LOQ ⩽LOQ ⩽LOQ ⩽LOQ ⩽LOQ ⩽LOQ ⩽LOQ ⩽LOQ ⩽LOQ ⩽LOQ ⩽LOQ ⩽LOQ
P33 3.218 45.74 319 2013-07-01 00:00:00 ⩽LOQ ⩽LOQ ⩽LOQ ⩽LOQ ⩽LOQ ⩽LOQ ⩽LOQ ⩽LOQ ⩽LOQ ⩽LOQ ⩽LOQ ⩽LOQ ⩽LOQ ⩽LOQ ⩽LOQ
P33 3.218 45.74 319 2013-07-29 00:00:00 ⩽LOQ ⩽LOQ ⩽LOQ ⩽LOQ ⩽LOQ ⩽LOQ ⩽LOQ ⩽LOQ ⩽LOQ ⩽LOQ ⩽LOQ ⩽LOQ ⩽LOQ ⩽LOQ ⩽LOQ
P33 3.218 45.74 319 2013-09-02 00:00:00 ⩽LOQ ⩽LOQ ⩽LOQ ⩽LOQ ⩽LOQ ⩽LOQ ⩽LOQ ⩽LOQ ⩽LOQ ⩽LOQ ⩽LOQ ⩽LOQ ⩽LOQ ⩽LOQ ⩽LOQ
P33 3.218 45.74 319 2013-10-07 00:00:00 ⩽LOQ ⩽LOQ ⩽LOQ ⩽LOQ ⩽LOQ ⩽LOQ ⩽LOQ ⩽LOQ ⩽LOQ ⩽LOQ ⩽LOQ ⩽LOQ ⩽LOQ ⩽LOQ ⩽LOQ
P33 3.218 45.74 319 2013-11-04 00:00:00 ⩽LOQ ⩽LOQ ⩽LOQ ⩽LOQ ⩽LOQ ⩽LOQ ⩽LOQ ⩽LOQ ⩽LOQ ⩽LOQ ⩽LOQ ⩽LOQ ⩽LOQ ⩽LOQ ⩽LOQ
P33 3.218 45.74 319 2013-12-02 00:00:00 ⩽LOQ ⩽LOQ ⩽LOQ ⩽LOQ ⩽LOQ ⩽LOQ ⩽LOQ ⩽LOQ ⩽LOQ ⩽LOQ ⩽LOQ ⩽LOQ ⩽LOQ ⩽LOQ ⩽LOQ
P33 3.218 45.74 319 2014-01-13 00:00:00 ⩽LOQ ⩽LOQ ⩽LOQ ⩽LOQ ⩽LOQ ⩽LOQ ⩽LOQ ⩽LOQ ⩽LOQ ⩽LOQ ⩽LOQ ⩽LOQ ⩽LOQ ⩽LOQ ⩽LOQ
P33 3.218 45.74 319 2014-02-10 00:00:00 ⩽LOQ ⩽LOQ ⩽LOQ ⩽LOQ ⩽LOQ ⩽LOQ ⩽LOQ ⩽LOQ ⩽LOQ ⩽LOQ ⩽LOQ ⩽LOQ ⩽LOQ ⩽LOQ ⩽LOQ
P33 3.218 45.74 319 2014-03-10 00:00:00 ⩽LOQ ⩽LOQ ⩽LOQ ⩽LOQ ⩽LOQ ⩽LOQ ⩽LOQ ⩽LOQ ⩽LOQ ⩽LOQ ⩽LOQ ⩽LOQ ⩽LOQ ⩽LOQ ⩽LOQ
P33 3.218 45.74 319 2014-05-12 00:00:00 ⩽LOQ ⩽LOQ ⩽LOQ ⩽LOQ ⩽LOQ ⩽LOQ ⩽LOQ ⩽LOQ 0.002 ⩽LOQ ⩽LOQ ⩽LOQ 0.013 0.034 0.102
P33 3.218 45.74 319 2014-06-02 00:00:00 ⩽LOQ ⩽LOQ ⩽LOQ ⩽LOQ ⩽LOQ ⩽LOQ 0.041 ⩽LOQ 0.006 ⩽LOQ ⩽LOQ ⩽LOQ ⩽LOQ ⩽LOQ ⩽LOQ
P33 3.218 45.74 319 2014-07-07 00:00:00 ⩽LOQ ⩽LOQ ⩽LOQ 0.008 ⩽LOQ ⩽LOQ ⩽LOQ ⩽LOQ ⩽LOQ 0.006 ⩽LOQ 0.014 ⩽LOQ ⩽LOQ ⩽LOQ
P33 3.218 45.74 319 2014-07-28 00:00:00 ⩽LOQ ⩽LOQ ⩽LOQ ⩽LOQ ⩽LOQ ⩽LOQ ⩽LOQ ⩽LOQ 0.0032 ⩽LOQ ⩽LOQ ⩽LOQ 0.025 ⩽LOQ 0.025
P33 3.218 45.74 319 2014-09-01 00:00:00 ⩽LOQ 0.008 ⩽LOQ 0.006 ⩽LOQ ⩽LOQ ⩽LOQ ⩽LOQ 0.0072 ⩽LOQ ⩽LOQ ⩽LOQ 0.01 ⩽LOQ 0.058
P33 3.218 45.74 319 2014-10-06 00:00:00 0.001 ⩽LOQ ⩽LOQ 0.007 ⩽LOQ ⩽LOQ ⩽LOQ ⩽LOQ 0.0047 0.008 ⩽LOQ ⩽LOQ ⩽LOQ ⩽LOQ 0.277
P33 3.218 45.74 319 2014-11-03 00:00:00 ⩽LOQ ⩽LOQ ⩽LOQ 0.005 ⩽LOQ ⩽LOQ ⩽LOQ ⩽LOQ 0.0033 ⩽LOQ ⩽LOQ ⩽LOQ 0.107 0.045 0.23
P33 3.218 45.74 319 2014-12-01 00:00:00 ⩽LOQ ⩽LOQ ⩽LOQ ⩽LOQ ⩽LOQ ⩽LOQ ⩽LOQ ⩽LOQ 0.0034 ⩽LOQ ⩽LOQ ⩽LOQ ⩽LOQ ⩽LOQ 0.067
P33 3.218 45.74 319 2015-01-19 00:00:00 ⩽LOQ ⩽LOQ ⩽LOQ ⩽LOQ ⩽LOQ ⩽LOQ ⩽LOQ ⩽LOQ 0.0021 ⩽LOQ ⩽LOQ ⩽LOQ ⩽LOQ ⩽LOQ ⩽LOQ
P33 3.218 45.74 319 2015-02-02 00:00:00 ⩽LOQ ⩽LOQ ⩽LOQ ⩽LOQ ⩽LOQ ⩽LOQ ⩽LOQ ⩽LOQ 0.0026 ⩽LOQ ⩽LOQ 0.008 ⩽LOQ ⩽LOQ 0.023
P33 3.218 45.74 319 2015-03-02 00:00:00 ⩽LOQ ⩽LOQ ⩽LOQ ⩽LOQ ⩽LOQ ⩽LOQ ⩽LOQ ⩽LOQ 0.0027 ⩽LOQ ⩽LOQ 0.008 ⩽LOQ ⩽LOQ ⩽LOQ
P33 3.218 45.74 319 2015-03-30 00:00:00 0.002 ⩽LOQ ⩽LOQ ⩽LOQ ⩽LOQ ⩽LOQ ⩽LOQ ⩽LOQ ⩽LOQ ⩽LOQ ⩽LOQ 0.007 ⩽LOQ ⩽LOQ ⩽LOQ
P33 3.218 45.74 319 2015-05-04 00:00:00 ⩽LOQ ⩽LOQ 0.017 ⩽LOQ ⩽LOQ ⩽LOQ ⩽LOQ ⩽LOQ 0.0023 0.007 ⩽LOQ ⩽LOQ ⩽LOQ ⩽LOQ ⩽LOQ
P33 3.218 45.74 319 2015-06-01 00:00:00 ⩽LOQ ⩽LOQ 0.008 ⩽LOQ 0.088 ⩽LOQ ⩽LOQ ⩽LOQ 0.0044 0.006 ⩽LOQ 0.011 ⩽LOQ ⩽LOQ ⩽LOQ
P33 3.218 45.74 319 2015-07-06 00:00:00 ⩽LOQ ⩽LOQ ⩽LOQ 0.007 ⩽LOQ ⩽LOQ ⩽LOQ ⩽LOQ 0.0109 0.009 ⩽LOQ 0.016 ⩽LOQ ⩽LOQ ⩽LOQ
P33 3.218 45.74 319 2015-07-27 00:00:00 0.005 0.009 ⩽LOQ 0.009 ⩽LOQ